<?xml version="1.0" encoding="UTF-8" standalone="no" ?><gpx xmlns="http://www.topografix.com/GPX/1/1" xmlns:gpxx="http://www.garmin.com/xmlschemas/GpxExtensions/v3" xmlns:wptx1="http://www.garmin.com/xmlschemas/WaypointExtension/v1" xmlns:gpxtpx="http://www.garmin.com/xmlschemas/TrackPointExtension/v1" creator="Dakota 20" version="1.1" xmlns:xsi="http://www.w3.org/2001/XMLSchema-instance" xsi:schemaLocation="http://www.topografix.com/GPX/1/1 http://www.topografix.com/GPX/1/1/gpx.xsd http://www.garmin.com/xmlschemas/GpxExtensions/v3 http://www8.garmin.com/xmlschemas/GpxExtensionsv3.xsd http://www.garmin.com/xmlschemas/WaypointExtension/v1 http://www8.garmin.com/xmlschemas/WaypointExtensionv1.xsd http://www.garmin.com/xmlschemas/TrackPointExtension/v1 http://www.garmin.com/xmlschemas/TrackPointExtensionv1.xsd"><metadata><link href="http://www.garmin.com"><text>Garmin International</text></link><time>2015-07-15T15:21:19Z</time></metadata><trk><name>Current Track: 15 JUL 2015 09:58</name><extensions><gpxx:TrackExtension><gpxx:DisplayColor>Cyan</gpxx:DisplayColor></gpxx:TrackExtension></extensions><trkseg><trkpt lat="51.8180782534" lon="-2.0017750841"><ele>167.89</ele><time>2015-07-15T08:58:33Z</time></trkpt><trkpt lat="51.8180775829" lon="-2.0017786045"><ele>166.93</ele><time>2015-07-15T08:59:03Z</time></trkpt><trkpt lat="51.8180772476" lon="-2.0017865673"><ele>172.69</ele><time>2015-07-15T08:59:11Z</time></trkpt><trkpt lat="51.8180773314" lon="-2.0017864835"><ele>167.41</ele><time>2015-07-15T08:59:12Z</time></trkpt><trkpt lat="51.8180621602" lon="-2.0018337574"><ele>168.85</ele><time>2015-07-15T08:59:26Z</time></trkpt><trkpt lat="51.8180432171" lon="-2.0018726494"><ele>167.41</ele><time>2015-07-15T08:59:29Z</time></trkpt><trkpt lat="51.8180007208" lon="-2.0019704662"><ele>167.41</ele><time>2015-07-15T08:59:35Z</time></trkpt><trkpt lat="51.8179454841" lon="-2.0022071712"><ele>164.04</ele><time>2015-07-15T08:59:51Z</time></trkpt><trkpt lat="51.8179505970" lon="-2.0023015514"><ele>167.89</ele><time>2015-07-15T08:59:55Z</time></trkpt><trkpt lat="51.8179551233" lon="-2.0023622364"><ele>165.48</ele><time>2015-07-15T08:59:58Z</time></trkpt><trkpt lat="51.8179610744" lon="-2.0025867037"><ele>165.00</ele><time>2015-07-15T09:00:08Z</time></trkpt><trkpt lat="51.8179500103" lon="-2.0026431978"><ele>166.45</ele><time>2015-07-15T09:00:11Z</time></trkpt><trkpt lat="51.8179299776" lon="-2.0027498994"><ele>165.00</ele><time>2015-07-15T09:00:19Z</time></trkpt><trkpt lat="51.8179261219" lon="-2.0027742907"><ele>166.45</ele><time>2015-07-15T09:00:21Z</time></trkpt><trkpt lat="51.8179210089" lon="-2.0029198844"><ele>165.96</ele><time>2015-07-15T09:00:33Z</time></trkpt><trkpt lat="51.8179223500" lon="-2.0029338822"><ele>166.45</ele><time>2015-07-15T09:00:34Z</time></trkpt><trkpt lat="51.8179308157" lon="-2.0029712655"><ele>165.48</ele><time>2015-07-15T09:00:36Z</time></trkpt><trkpt lat="51.8179449812" lon="-2.0030830801"><ele>163.56</ele><time>2015-07-15T09:00:41Z</time></trkpt><trkpt lat="51.8179245293" lon="-2.0031746943"><ele>158.75</ele><time>2015-07-15T09:00:45Z</time></trkpt><trkpt lat="51.8179243617" lon="-2.0031754486"><ele>160.20</ele><time>2015-07-15T09:00:46Z</time></trkpt><trkpt lat="51.8179242779" lon="-2.0031751134"><ele>162.12</ele><time>2015-07-15T09:00:48Z</time></trkpt><trkpt lat="51.8179244455" lon="-2.0031744428"><ele>168.37</ele><time>2015-07-15T09:00:49Z</time></trkpt><trkpt lat="51.8179245293" lon="-2.0031737722"><ele>164.52</ele><time>2015-07-15T09:00:50Z</time></trkpt><trkpt lat="51.8179246970" lon="-2.0031731017"><ele>168.37</ele><time>2015-07-15T09:00:51Z</time></trkpt><trkpt lat="51.8179247808" lon="-2.0031724311"><ele>165.00</ele><time>2015-07-15T09:00:52Z</time></trkpt><trkpt lat="51.8179251999" lon="-2.0031705033"><ele>161.16</ele><time>2015-07-15T09:00:55Z</time></trkpt><trkpt lat="51.8179252837" lon="-2.0031698328"><ele>167.89</ele><time>2015-07-15T09:00:56Z</time></trkpt><trkpt lat="51.8179255351" lon="-2.0031684916"><ele>176.06</ele><time>2015-07-15T09:00:58Z</time></trkpt><trkpt lat="51.8179257028" lon="-2.0031678211"><ele>166.45</ele><time>2015-07-15T09:00:59Z</time></trkpt><trkpt lat="51.8179259542" lon="-2.0031664800"><ele>164.52</ele><time>2015-07-15T09:01:01Z</time></trkpt><trkpt lat="51.8179552071" lon="-2.0032016840"><ele>165.00</ele><time>2015-07-15T09:01:11Z</time></trkpt><trkpt lat="51.8179751560" lon="-2.0035916101"><ele>164.04</ele><time>2015-07-15T09:01:29Z</time></trkpt><trkpt lat="51.8179865554" lon="-2.0036474336"><ele>162.12</ele><time>2015-07-15T09:01:31Z</time></trkpt><trkpt lat="51.8179764971" lon="-2.0040856395"><ele>163.56</ele><time>2015-07-15T09:01:45Z</time></trkpt><trkpt lat="51.8179812748" lon="-2.0042236894"><ele>163.08</ele><time>2015-07-15T09:01:53Z</time></trkpt><trkpt lat="51.8179945182" lon="-2.0042976178"><ele>162.60</ele><time>2015-07-15T09:01:57Z</time></trkpt><trkpt lat="51.8179841246" lon="-2.0045086741"><ele>159.24</ele><time>2015-07-15T09:02:07Z</time></trkpt><trkpt lat="51.8180438876" lon="-2.0047836844"><ele>158.75</ele><time>2015-07-15T09:02:22Z</time></trkpt><trkpt lat="51.8180554546" lon="-2.0048545953"><ele>160.68</ele><time>2015-07-15T09:02:26Z</time></trkpt><trkpt lat="51.8180474080" lon="-2.0049276855"><ele>158.75</ele><time>2015-07-15T09:02:30Z</time></trkpt><trkpt lat="51.8179702107" lon="-2.0052681584"><ele>157.79</ele><time>2015-07-15T09:02:44Z</time></trkpt><trkpt lat="51.8179735634" lon="-2.0056344476"><ele>158.75</ele><time>2015-07-15T09:03:03Z</time></trkpt><trkpt lat="51.8179708812" lon="-2.0058793668"><ele>156.83</ele><time>2015-07-15T09:03:23Z</time></trkpt><trkpt lat="51.8180039059" lon="-2.0061966218"><ele>156.35</ele><time>2015-07-15T09:03:43Z</time></trkpt><trkpt lat="51.8179699592" lon="-2.0063756593"><ele>154.91</ele><time>2015-07-15T09:03:54Z</time></trkpt><trkpt lat="51.8179673608" lon="-2.0064339973"><ele>156.35</ele><time>2015-07-15T09:03:57Z</time></trkpt><trkpt lat="51.8179993797" lon="-2.0067074988"><ele>154.91</ele><time>2015-07-15T09:04:16Z</time></trkpt><trkpt lat="51.8180408701" lon="-2.0070692617"><ele>155.87</ele><time>2015-07-15T09:04:35Z</time></trkpt><trkpt lat="51.8180604838" lon="-2.0074176975"><ele>155.39</ele><time>2015-07-15T09:04:56Z</time></trkpt><trkpt lat="51.8180831149" lon="-2.0075129159"><ele>155.87</ele><time>2015-07-15T09:05:02Z</time></trkpt><trkpt lat="51.8181454763" lon="-2.0076925401"><ele>155.39</ele><time>2015-07-15T09:05:21Z</time></trkpt><trkpt lat="51.8181505054" lon="-2.0077178534"><ele>155.87</ele><time>2015-07-15T09:05:23Z</time></trkpt><trkpt lat="51.8181827758" lon="-2.0079461765"><ele>156.35</ele><time>2015-07-15T09:05:32Z</time></trkpt><trkpt lat="51.8181753159" lon="-2.0080157463"><ele>154.43</ele><time>2015-07-15T09:05:34Z</time></trkpt><trkpt lat="51.8182051554" lon="-2.0082186721"><ele>156.83</ele><time>2015-07-15T09:05:45Z</time></trkpt><trkpt lat="51.8182214163" lon="-2.0083073527"><ele>156.83</ele><time>2015-07-15T09:05:49Z</time></trkpt><trkpt lat="51.8182729650" lon="-2.0084999688"><ele>163.56</ele><time>2015-07-15T09:06:08Z</time></trkpt><trkpt lat="51.8182719592" lon="-2.0085000526"><ele>155.39</ele><time>2015-07-15T09:06:09Z</time></trkpt><trkpt lat="51.8182102684" lon="-2.0086072572"><ele>159.24</ele><time>2015-07-15T09:06:19Z</time></trkpt><trkpt lat="51.8182126991" lon="-2.0086276252"><ele>155.87</ele><time>2015-07-15T09:06:20Z</time></trkpt><trkpt lat="51.8182362523" lon="-2.0086970273"><ele>157.79</ele><time>2015-07-15T09:06:24Z</time></trkpt><trkpt lat="51.8182602245" lon="-2.0087727997"><ele>155.39</ele><time>2015-07-15T09:06:30Z</time></trkpt><trkpt lat="51.8182700314" lon="-2.0088017173"><ele>156.83</ele><time>2015-07-15T09:06:32Z</time></trkpt><trkpt lat="51.8182842806" lon="-2.0088339038"><ele>158.27</ele><time>2015-07-15T09:06:34Z</time></trkpt><trkpt lat="51.8182878848" lon="-2.0088647492"><ele>154.91</ele><time>2015-07-15T09:06:36Z</time></trkpt><trkpt lat="51.8182964344" lon="-2.0089278650"><ele>158.27</ele><time>2015-07-15T09:06:40Z</time></trkpt><trkpt lat="51.8183164671" lon="-2.0091160387"><ele>157.31</ele><time>2015-07-15T09:06:58Z</time></trkpt><trkpt lat="51.8182679359" lon="-2.0091276895"><ele>157.31</ele><time>2015-07-15T09:07:19Z</time></trkpt><trkpt lat="51.8182413653" lon="-2.0093027875"><ele>158.75</ele><time>2015-07-15T09:07:38Z</time></trkpt><trkpt lat="51.8183232564" lon="-2.0095094852"><ele>157.79</ele><time>2015-07-15T09:08:00Z</time></trkpt><trkpt lat="51.8183535151" lon="-2.0094684139"><ele>157.31</ele><time>2015-07-15T09:08:24Z</time></trkpt><trkpt lat="51.8183531798" lon="-2.0094668213"><ele>153.47</ele><time>2015-07-15T09:08:26Z</time></trkpt><trkpt lat="51.8183533475" lon="-2.0094713476"><ele>157.79</ele><time>2015-07-15T09:08:27Z</time></trkpt><trkpt lat="51.8183620647" lon="-2.0094345510"><ele>162.60</ele><time>2015-07-15T09:08:36Z</time></trkpt><trkpt lat="51.8183677644" lon="-2.0094196312"><ele>158.27</ele><time>2015-07-15T09:08:37Z</time></trkpt><trkpt lat="51.8183486536" lon="-2.0094846748"><ele>158.75</ele><time>2015-07-15T09:08:45Z</time></trkpt><trkpt lat="51.8183493242" lon="-2.0095434319"><ele>159.24</ele><time>2015-07-15T09:08:47Z</time></trkpt><trkpt lat="51.8183891382" lon="-2.0097088069"><ele>158.75</ele><time>2015-07-15T09:09:04Z</time></trkpt><trkpt lat="51.8184147868" lon="-2.0097887702"><ele>158.27</ele><time>2015-07-15T09:09:14Z</time></trkpt><trkpt lat="51.8184588756" lon="-2.0100703184"><ele>158.75</ele><time>2015-07-15T09:09:30Z</time></trkpt><trkpt lat="51.8185021263" lon="-2.0102859847"><ele>160.20</ele><time>2015-07-15T09:09:47Z</time></trkpt><trkpt lat="51.8185198959" lon="-2.0104456600"><ele>160.20</ele><time>2015-07-15T09:10:04Z</time></trkpt><trkpt lat="51.8185202312" lon="-2.0106505137"><ele>161.64</ele><time>2015-07-15T09:10:16Z</time></trkpt><trkpt lat="51.8185217399" lon="-2.0106823649"><ele>160.20</ele><time>2015-07-15T09:10:18Z</time></trkpt><trkpt lat="51.8185969256" lon="-2.0108875539"><ele>161.16</ele><time>2015-07-15T09:10:39Z</time></trkpt><trkpt lat="51.8186708540" lon="-2.0109347440"><ele>164.52</ele><time>2015-07-15T09:10:50Z</time></trkpt><trkpt lat="51.8186814152" lon="-2.0109355822"><ele>160.68</ele><time>2015-07-15T09:10:51Z</time></trkpt><trkpt lat="51.8187434413" lon="-2.0109486580"><ele>163.56</ele><time>2015-07-15T09:10:57Z</time></trkpt><trkpt lat="51.8188330438" lon="-2.0109560341"><ele>161.64</ele><time>2015-07-15T09:11:07Z</time></trkpt><trkpt lat="51.8188684154" lon="-2.0109680202"><ele>163.56</ele><time>2015-07-15T09:11:10Z</time></trkpt><trkpt lat="51.8190168589" lon="-2.0109502506"><ele>164.52</ele><time>2015-07-15T09:11:24Z</time></trkpt><trkpt lat="51.8191102333" lon="-2.0109462272"><ele>165.00</ele><time>2015-07-15T09:11:36Z</time></trkpt><trkpt lat="51.8192194495" lon="-2.0109997038"><ele>165.96</ele><time>2015-07-15T09:11:48Z</time></trkpt><trkpt lat="51.8193771131" lon="-2.0110315550"><ele>166.93</ele><time>2015-07-15T09:12:07Z</time></trkpt><trkpt lat="51.8194078747" lon="-2.0110482350"><ele>167.89</ele><time>2015-07-15T09:12:12Z</time></trkpt><trkpt lat="51.8194450065" lon="-2.0110298786"><ele>167.89</ele><time>2015-07-15T09:12:17Z</time></trkpt><trkpt lat="51.8195937015" lon="-2.0110385120"><ele>168.37</ele><time>2015-07-15T09:12:31Z</time></trkpt><trkpt lat="51.8198134750" lon="-2.0110966824"><ele>168.85</ele><time>2015-07-15T09:12:53Z</time></trkpt><trkpt lat="51.8199120462" lon="-2.0110782422"><ele>168.37</ele><time>2015-07-15T09:13:03Z</time></trkpt><trkpt lat="51.8201217614" lon="-2.0111143682"><ele>170.77</ele><time>2015-07-15T09:13:25Z</time></trkpt><trkpt lat="51.8201493379" lon="-2.0111321378"><ele>169.33</ele><time>2015-07-15T09:13:28Z</time></trkpt><trkpt lat="51.8201655988" lon="-2.0111473091"><ele>170.77</ele><time>2015-07-15T09:13:30Z</time></trkpt><trkpt lat="51.8202557880" lon="-2.0112295356"><ele>170.77</ele><time>2015-07-15T09:13:40Z</time></trkpt><trkpt lat="51.8202636670" lon="-2.0112380013"><ele>169.33</ele><time>2015-07-15T09:13:41Z</time></trkpt><trkpt lat="51.8202894833" lon="-2.0112761389"><ele>171.73</ele><time>2015-07-15T09:13:44Z</time></trkpt><trkpt lat="51.8203085102" lon="-2.0112939924"><ele>170.29</ele><time>2015-07-15T09:13:46Z</time></trkpt><trkpt lat="51.8204178102" lon="-2.0114136022"><ele>172.21</ele><time>2015-07-15T09:13:58Z</time></trkpt><trkpt lat="51.8205493223" lon="-2.0115006901"><ele>173.17</ele><time>2015-07-15T09:14:15Z</time></trkpt><trkpt lat="51.8205892202" lon="-2.0115124248"><ele>173.17</ele><time>2015-07-15T09:14:19Z</time></trkpt><trkpt lat="51.8206165452" lon="-2.0115098264"><ele>174.14</ele><time>2015-07-15T09:14:23Z</time></trkpt><trkpt lat="51.8208003603" lon="-2.0115607046"><ele>174.62</ele><time>2015-07-15T09:14:45Z</time></trkpt><trkpt lat="51.8208094966" lon="-2.0115591120"><ele>173.17</ele><time>2015-07-15T09:14:46Z</time></trkpt><trkpt lat="51.8209966645" lon="-2.0115418453"><ele>176.06</ele><time>2015-07-15T09:15:06Z</time></trkpt><trkpt lat="51.8210133445" lon="-2.0115586091"><ele>176.06</ele><time>2015-07-15T09:15:29Z</time></trkpt><trkpt lat="51.8210078962" lon="-2.0115668233"><ele>176.06</ele><time>2015-07-15T09:15:52Z</time></trkpt><trkpt lat="51.8210070580" lon="-2.0115629677"><ele>176.06</ele><time>2015-07-15T09:16:17Z</time></trkpt><trkpt lat="51.8210139312" lon="-2.0115460362"><ele>176.06</ele><time>2015-07-15T09:16:41Z</time></trkpt><trkpt lat="51.8210177030" lon="-2.0115581900"><ele>171.73</ele><time>2015-07-15T09:16:47Z</time></trkpt><trkpt lat="51.8210208043" lon="-2.0115619618"><ele>175.58</ele><time>2015-07-15T09:16:48Z</time></trkpt><trkpt lat="51.8210872728" lon="-2.0114776399"><ele>176.54</ele><time>2015-07-15T09:16:57Z</time></trkpt><trkpt lat="51.8211136758" lon="-2.0114374068"><ele>178.46</ele><time>2015-07-15T09:17:00Z</time></trkpt><trkpt lat="51.8212333694" lon="-2.0113248378"><ele>175.10</ele><time>2015-07-15T09:17:10Z</time></trkpt><trkpt lat="51.8212545756" lon="-2.0113021228"><ele>178.46</ele><time>2015-07-15T09:17:12Z</time></trkpt><trkpt lat="51.8212716747" lon="-2.0112809166"><ele>179.42</ele><time>2015-07-15T09:17:14Z</time></trkpt><trkpt lat="51.8212901987" lon="-2.0112695172"><ele>176.06</ele><time>2015-07-15T09:17:16Z</time></trkpt><trkpt lat="51.8213178590" lon="-2.0112556871"><ele>179.90</ele><time>2015-07-15T09:17:21Z</time></trkpt><trkpt lat="51.8213152606" lon="-2.0112461317"><ele>180.38</ele><time>2015-07-15T09:17:22Z</time></trkpt><trkpt lat="51.8213288393" lon="-2.0112234168"><ele>176.54</ele><time>2015-07-15T09:17:24Z</time></trkpt><trkpt lat="51.8213524763" lon="-2.0111945830"><ele>180.38</ele><time>2015-07-15T09:17:27Z</time></trkpt><trkpt lat="51.8215301726" lon="-2.0110399369"><ele>179.90</ele><time>2015-07-15T09:17:46Z</time></trkpt><trkpt lat="51.8215507083" lon="-2.0110240113"><ele>181.35</ele><time>2015-07-15T09:17:49Z</time></trkpt><trkpt lat="51.8215705734" lon="-2.0110017154"><ele>179.90</ele><time>2015-07-15T09:17:51Z</time></trkpt><trkpt lat="51.8216332700" lon="-2.0109220035"><ele>180.38</ele><time>2015-07-15T09:17:58Z</time></trkpt><trkpt lat="51.8218298256" lon="-2.0106781740"><ele>183.75</ele><time>2015-07-15T09:18:16Z</time></trkpt><trkpt lat="51.8219724018" lon="-2.0104935206"><ele>181.83</ele><time>2015-07-15T09:18:39Z</time></trkpt><trkpt lat="51.8220024928" lon="-2.0104682073"><ele>184.71</ele><time>2015-07-15T09:18:42Z</time></trkpt><trkpt lat="51.8221976236" lon="-2.0102835540"><ele>186.15</ele><time>2015-07-15T09:18:58Z</time></trkpt><trkpt lat="51.8222778384" lon="-2.0101574901"><ele>188.56</ele><time>2015-07-15T09:19:11Z</time></trkpt><trkpt lat="51.8222801015" lon="-2.0101502817"><ele>185.19</ele><time>2015-07-15T09:19:12Z</time></trkpt><trkpt lat="51.8222840410" lon="-2.0101378765"><ele>186.63</ele><time>2015-07-15T09:19:13Z</time></trkpt><trkpt lat="51.8223215919" lon="-2.0100086275"><ele>190.00</ele><time>2015-07-15T09:19:22Z</time></trkpt><trkpt lat="51.8223280460" lon="-2.0099977311"><ele>189.04</ele><time>2015-07-15T09:19:23Z</time></trkpt><trkpt lat="51.8223932572" lon="-2.0099631976"><ele>185.67</ele><time>2015-07-15T09:19:28Z</time></trkpt><trkpt lat="51.8224111944" lon="-2.0099604316"><ele>190.00</ele><time>2015-07-15T09:19:30Z</time></trkpt><trkpt lat="51.8226138689" lon="-2.0098133292"><ele>190.96</ele><time>2015-07-15T09:19:46Z</time></trkpt><trkpt lat="51.8227219116" lon="-2.0097411610"><ele>193.84</ele><time>2015-07-15T09:20:06Z</time></trkpt><trkpt lat="51.8227261864" lon="-2.0097290911"><ele>189.04</ele><time>2015-07-15T09:20:07Z</time></trkpt><trkpt lat="51.8227308802" lon="-2.0097232237"><ele>191.92</ele><time>2015-07-15T09:20:08Z</time></trkpt><trkpt lat="51.8228278589" lon="-2.0096451882"><ele>195.28</ele><time>2015-07-15T09:20:20Z</time></trkpt><trkpt lat="51.8228368275" lon="-2.0096425898"><ele>190.96</ele><time>2015-07-15T09:20:21Z</time></trkpt><trkpt lat="51.8228510767" lon="-2.0096452720"><ele>193.84</ele><time>2015-07-15T09:20:23Z</time></trkpt><trkpt lat="51.8228618894" lon="-2.0096366387"><ele>193.84</ele><time>2015-07-15T09:20:24Z</time></trkpt><trkpt lat="51.8228465505" lon="-2.0096072182"><ele>193.36</ele><time>2015-07-15T09:20:43Z</time></trkpt><trkpt lat="51.8228794076" lon="-2.0095881075"><ele>195.28</ele><time>2015-07-15T09:20:52Z</time></trkpt><trkpt lat="51.8230542541" lon="-2.0094843395"><ele>193.84</ele><time>2015-07-15T09:21:13Z</time></trkpt><trkpt lat="51.8230674136" lon="-2.0094599482"><ele>197.21</ele><time>2015-07-15T09:21:16Z</time></trkpt><trkpt lat="51.8231870234" lon="-2.0094070584"><ele>195.28</ele><time>2015-07-15T09:21:29Z</time></trkpt><trkpt lat="51.8232618738" lon="-2.0093892887"><ele>197.69</ele><time>2015-07-15T09:21:37Z</time></trkpt><trkpt lat="51.8233177811" lon="-2.0093493070"><ele>196.25</ele><time>2015-07-15T09:21:44Z</time></trkpt><trkpt lat="51.8233393226" lon="-2.0093362313"><ele>199.61</ele><time>2015-07-15T09:21:46Z</time></trkpt><trkpt lat="51.8234137539" lon="-2.0093288552"><ele>199.13</ele><time>2015-07-15T09:21:53Z</time></trkpt><trkpt lat="51.8235000037" lon="-2.0093430206"><ele>198.17</ele><time>2015-07-15T09:22:04Z</time></trkpt><trkpt lat="51.8235255685" lon="-2.0093088225"><ele>200.57</ele><time>2015-07-15T09:22:07Z</time></trkpt><trkpt lat="51.8236766104" lon="-2.0092805754"><ele>201.05</ele><time>2015-07-15T09:22:25Z</time></trkpt><trkpt lat="51.8236808013" lon="-2.0092760492"><ele>204.42</ele><time>2015-07-15T09:22:27Z</time></trkpt><trkpt lat="51.8236863334" lon="-2.0092804916"><ele>200.57</ele><time>2015-07-15T09:22:28Z</time></trkpt><trkpt lat="51.8237055279" lon="-2.0092690922"><ele>204.42</ele><time>2015-07-15T09:22:32Z</time></trkpt><trkpt lat="51.8237120658" lon="-2.0092592854"><ele>200.09</ele><time>2015-07-15T09:22:33Z</time></trkpt><trkpt lat="51.8237219565" lon="-2.0092441142"><ele>203.94</ele><time>2015-07-15T09:22:35Z</time></trkpt><trkpt lat="51.8237740919" lon="-2.0092049707"><ele>200.57</ele><time>2015-07-15T09:22:42Z</time></trkpt><trkpt lat="51.8237901013" lon="-2.0091752149"><ele>205.38</ele><time>2015-07-15T09:22:44Z</time></trkpt><trkpt lat="51.8238012493" lon="-2.0091561880"><ele>205.38</ele><time>2015-07-15T09:22:45Z</time></trkpt><trkpt lat="51.8238224555" lon="-2.0091177151"><ele>202.49</ele><time>2015-07-15T09:22:47Z</time></trkpt><trkpt lat="51.8238556478" lon="-2.0090613887"><ele>205.86</ele><time>2015-07-15T09:22:52Z</time></trkpt><trkpt lat="51.8238610122" lon="-2.0090542641"><ele>202.01</ele><time>2015-07-15T09:22:53Z</time></trkpt><trkpt lat="51.8238757644" lon="-2.0090362430"><ele>206.34</ele><time>2015-07-15T09:22:56Z</time></trkpt><trkpt lat="51.8238856550" lon="-2.0090323873"><ele>205.86</ele><time>2015-07-15T09:22:57Z</time></trkpt><trkpt lat="51.8239444960" lon="-2.0089884661"><ele>203.46</ele><time>2015-07-15T09:23:03Z</time></trkpt><trkpt lat="51.8240521196" lon="-2.0089768153"><ele>207.30</ele><time>2015-07-15T09:23:14Z</time></trkpt><trkpt lat="51.8240605853" lon="-2.0089760609"><ele>203.46</ele><time>2015-07-15T09:23:15Z</time></trkpt><trkpt lat="51.8240810372" lon="-2.0089724567"><ele>207.30</ele><time>2015-07-15T09:23:17Z</time></trkpt><trkpt lat="51.8242155667" lon="-2.0089245122"><ele>206.82</ele><time>2015-07-15T09:23:33Z</time></trkpt><trkpt lat="51.8243149761" lon="-2.0088417828"><ele>208.26</ele><time>2015-07-15T09:23:46Z</time></trkpt><trkpt lat="51.8244943488" lon="-2.0086157229"><ele>208.26</ele><time>2015-07-15T09:24:08Z</time></trkpt><trkpt lat="51.8245727196" lon="-2.0085428841"><ele>209.22</ele><time>2015-07-15T09:24:17Z</time></trkpt><trkpt lat="51.8246624898" lon="-2.0084745716"><ele>210.19</ele><time>2015-07-15T09:24:36Z</time></trkpt><trkpt lat="51.8247132841" lon="-2.0084319077"><ele>209.70</ele><time>2015-07-15T09:24:44Z</time></trkpt><trkpt lat="51.8247606419" lon="-2.0084032416"><ele>208.74</ele><time>2015-07-15T09:24:50Z</time></trkpt><trkpt lat="51.8248084188" lon="-2.0083741564"><ele>210.19</ele><time>2015-07-15T09:24:56Z</time></trkpt><trkpt lat="51.8248284515" lon="-2.0083557162"><ele>210.67</ele><time>2015-07-15T09:24:58Z</time></trkpt><trkpt lat="51.8250020407" lon="-2.0081822947"><ele>211.15</ele><time>2015-07-15T09:25:16Z</time></trkpt><trkpt lat="51.8251346424" lon="-2.0080510341"><ele>211.15</ele><time>2015-07-15T09:25:33Z</time></trkpt><trkpt lat="51.8252464570" lon="-2.0080825500"><ele>212.11</ele><time>2015-07-15T09:25:48Z</time></trkpt><trkpt lat="51.8252634723" lon="-2.0081206877"><ele>215.47</ele><time>2015-07-15T09:25:50Z</time></trkpt><trkpt lat="51.8252711836" lon="-2.0081346855"><ele>214.03</ele><time>2015-07-15T09:25:51Z</time></trkpt><trkpt lat="51.8252840918" lon="-2.0081630163"><ele>210.67</ele><time>2015-07-15T09:25:53Z</time></trkpt><trkpt lat="51.8252921384" lon="-2.0081773493"><ele>212.59</ele><time>2015-07-15T09:25:54Z</time></trkpt><trkpt lat="51.8253149372" lon="-2.0082036685"><ele>212.11</ele><time>2015-07-15T09:25:58Z</time></trkpt><trkpt lat="51.8253622949" lon="-2.0082571451"><ele>210.19</ele><time>2015-07-15T09:26:04Z</time></trkpt><trkpt lat="51.8253707606" lon="-2.0082684606"><ele>213.55</ele><time>2015-07-15T09:26:05Z</time></trkpt><trkpt lat="51.8253932241" lon="-2.0083113760"><ele>212.59</ele><time>2015-07-15T09:26:09Z</time></trkpt><trkpt lat="51.8254016899" lon="-2.0083672833"><ele>212.59</ele><time>2015-07-15T09:26:13Z</time></trkpt><trkpt lat="51.8254344631" lon="-2.0085702930"><ele>214.03</ele><time>2015-07-15T09:26:30Z</time></trkpt><trkpt lat="51.8255003449" lon="-2.0086136274"><ele>214.03</ele><time>2015-07-15T09:26:49Z</time></trkpt><trkpt lat="51.8255150970" lon="-2.0087079238"><ele>213.07</ele><time>2015-07-15T09:27:10Z</time></trkpt><trkpt lat="51.8255973235" lon="-2.0089282002"><ele>216.91</ele><time>2015-07-15T09:27:30Z</time></trkpt><trkpt lat="51.8256055377" lon="-2.0089461375"><ele>213.07</ele><time>2015-07-15T09:27:31Z</time></trkpt><trkpt lat="51.8256122433" lon="-2.0089992788"><ele>216.43</ele><time>2015-07-15T09:27:35Z</time></trkpt><trkpt lat="51.8257367145" lon="-2.0091844350"><ele>214.99</ele><time>2015-07-15T09:27:48Z</time></trkpt><trkpt lat="51.8257762771" lon="-2.0093101636"><ele>214.51</ele><time>2015-07-15T09:27:57Z</time></trkpt><trkpt lat="51.8258837331" lon="-2.0094043761"><ele>216.43</ele><time>2015-07-15T09:28:14Z</time></trkpt><trkpt lat="51.8259250559" lon="-2.0094919670"><ele>214.99</ele><time>2015-07-15T09:28:21Z</time></trkpt><trkpt lat="51.8259547278" lon="-2.0097840764"><ele>215.47</ele><time>2015-07-15T09:28:34Z</time></trkpt><trkpt lat="51.8259763531" lon="-2.0099134929"><ele>216.91</ele><time>2015-07-15T09:28:43Z</time></trkpt><trkpt lat="51.8260118924" lon="-2.0100298338"><ele>216.91</ele><time>2015-07-15T09:28:54Z</time></trkpt><trkpt lat="51.8260175083" lon="-2.0100574940"><ele>215.47</ele><time>2015-07-15T09:28:56Z</time></trkpt><trkpt lat="51.8260403909" lon="-2.0101076178"><ele>214.99</ele><time>2015-07-15T09:29:01Z</time></trkpt><trkpt lat="51.8260779418" lon="-2.0102351066"><ele>216.91</ele><time>2015-07-15T09:29:10Z</time></trkpt><trkpt lat="51.8260866590" lon="-2.0102926064"><ele>215.95</ele><time>2015-07-15T09:29:13Z</time></trkpt><trkpt lat="51.8261060212" lon="-2.0104131382"><ele>215.47</ele><time>2015-07-15T09:29:19Z</time></trkpt><trkpt lat="51.8261372019" lon="-2.0105133858"><ele>216.43</ele><time>2015-07-15T09:29:26Z</time></trkpt><trkpt lat="51.8261574022" lon="-2.0105594024"><ele>215.47</ele><time>2015-07-15T09:29:30Z</time></trkpt><trkpt lat="51.8262324203" lon="-2.0107352547"><ele>215.95</ele><time>2015-07-15T09:29:46Z</time></trkpt><trkpt lat="51.8263091985" lon="-2.0109898131"><ele>216.43</ele><time>2015-07-15T09:30:03Z</time></trkpt><trkpt lat="51.8264123797" lon="-2.0111327246"><ele>215.47</ele><time>2015-07-15T09:30:18Z</time></trkpt><trkpt lat="51.8264390342" lon="-2.0111898053"><ele>215.95</ele><time>2015-07-15T09:30:23Z</time></trkpt><trkpt lat="51.8265214283" lon="-2.0114036277"><ele>215.47</ele><time>2015-07-15T09:30:40Z</time></trkpt><trkpt lat="51.8265483342" lon="-2.0115232375"><ele>215.47</ele><time>2015-07-15T09:30:47Z</time></trkpt><trkpt lat="51.8265876453" lon="-2.0116163604"><ele>216.91</ele><time>2015-07-15T09:30:54Z</time></trkpt><trkpt lat="51.8266850431" lon="-2.0119238924"><ele>215.47</ele><time>2015-07-15T09:31:14Z</time></trkpt><trkpt lat="51.8267365079" lon="-2.0120670553"><ele>214.99</ele><time>2015-07-15T09:31:23Z</time></trkpt><trkpt lat="51.8267746456" lon="-2.0121807139"><ele>214.51</ele><time>2015-07-15T09:31:29Z</time></trkpt><trkpt lat="51.8268622365" lon="-2.0123738330"><ele>214.51</ele><time>2015-07-15T09:31:42Z</time></trkpt><trkpt lat="51.8269777391" lon="-2.0125827100"><ele>214.99</ele><time>2015-07-15T09:31:59Z</time></trkpt><trkpt lat="51.8270058185" lon="-2.0126459934"><ele>214.03</ele><time>2015-07-15T09:32:03Z</time></trkpt><trkpt lat="51.8270787410" lon="-2.0128111169"><ele>214.03</ele><time>2015-07-15T09:32:16Z</time></trkpt><trkpt lat="51.8271829281" lon="-2.0130246039"><ele>212.11</ele><time>2015-07-15T09:32:34Z</time></trkpt><trkpt lat="51.8272333872" lon="-2.0130997058"><ele>214.03</ele><time>2015-07-15T09:32:42Z</time></trkpt><trkpt lat="51.8272635620" lon="-2.0131833572"><ele>214.03</ele><time>2015-07-15T09:32:48Z</time></trkpt><trkpt lat="51.8272867799" lon="-2.0134927332"><ele>213.07</ele><time>2015-07-15T09:32:56Z</time></trkpt><trkpt lat="51.8273068126" lon="-2.0135837607"><ele>212.11</ele><time>2015-07-15T09:33:00Z</time></trkpt><trkpt lat="51.8273762148" lon="-2.0137495548"><ele>212.11</ele><time>2015-07-15T09:33:15Z</time></trkpt><trkpt lat="51.8273975886" lon="-2.0137840044"><ele>212.11</ele><time>2015-07-15T09:33:22Z</time></trkpt><trkpt lat="51.8275091518" lon="-2.0140119083"><ele>213.55</ele><time>2015-07-15T09:33:39Z</time></trkpt><trkpt lat="51.8275410030" lon="-2.0141368825"><ele>211.63</ele><time>2015-07-15T09:33:55Z</time></trkpt><trkpt lat="51.8275664002" lon="-2.0140948892"><ele>208.74</ele><time>2015-07-15T09:33:59Z</time></trkpt><trkpt lat="51.8275705911" lon="-2.0140837412"><ele>212.59</ele><time>2015-07-15T09:34:00Z</time></trkpt><trkpt lat="51.8275780510" lon="-2.0140630379"><ele>213.07</ele><time>2015-07-15T09:34:02Z</time></trkpt><trkpt lat="51.8275897857" lon="-2.0140426699"><ele>211.15</ele><time>2015-07-15T09:34:04Z</time></trkpt><trkpt lat="51.8276060466" lon="-2.0140243974"><ele>212.59</ele><time>2015-07-15T09:34:06Z</time></trkpt><trkpt lat="51.8276716769" lon="-2.0139363874"><ele>209.22</ele><time>2015-07-15T09:34:14Z</time></trkpt><trkpt lat="51.8276788853" lon="-2.0139308553"><ele>211.15</ele><time>2015-07-15T09:34:15Z</time></trkpt><trkpt lat="51.8277073838" lon="-2.0139060449"><ele>215.95</ele><time>2015-07-15T09:34:18Z</time></trkpt><trkpt lat="51.8277168553" lon="-2.0138974115"><ele>211.63</ele><time>2015-07-15T09:34:19Z</time></trkpt><trkpt lat="51.8277457729" lon="-2.0138643030"><ele>214.51</ele><time>2015-07-15T09:34:22Z</time></trkpt><trkpt lat="51.8277502991" lon="-2.0138536580"><ele>210.19</ele><time>2015-07-15T09:34:23Z</time></trkpt><trkpt lat="51.8277562503" lon="-2.0138426777"><ele>214.03</ele><time>2015-07-15T09:34:24Z</time></trkpt><trkpt lat="51.8278074637" lon="-2.0138265844"><ele>210.19</ele><time>2015-07-15T09:34:28Z</time></trkpt><trkpt lat="51.8278185278" lon="-2.0138171967"><ele>214.03</ele><time>2015-07-15T09:34:29Z</time></trkpt><trkpt lat="51.8278504629" lon="-2.0137821604"><ele>211.15</ele><time>2015-07-15T09:34:32Z</time></trkpt><trkpt lat="51.8278599344" lon="-2.0137717668"><ele>214.99</ele><time>2015-07-15T09:34:33Z</time></trkpt><trkpt lat="51.8278943840" lon="-2.0137417596"><ele>213.07</ele><time>2015-07-15T09:34:36Z</time></trkpt><trkpt lat="51.8279153388" lon="-2.0137171168"><ele>215.47</ele><time>2015-07-15T09:34:38Z</time></trkpt><trkpt lat="51.8279405683" lon="-2.0137049630"><ele>212.59</ele><time>2015-07-15T09:34:41Z</time></trkpt><trkpt lat="51.8279471900" lon="-2.0137006044"><ele>215.47</ele><time>2015-07-15T09:34:42Z</time></trkpt><trkpt lat="51.8279756047" lon="-2.0136663225"><ele>214.03</ele><time>2015-07-15T09:34:46Z</time></trkpt><trkpt lat="51.8280013371" lon="-2.0136412606"><ele>217.88</ele><time>2015-07-15T09:34:48Z</time></trkpt><trkpt lat="51.8280078750" lon="-2.0136322919"><ele>214.51</ele><time>2015-07-15T09:34:49Z</time></trkpt><trkpt lat="51.8280424923" lon="-2.0136064757"><ele>218.84</ele><time>2015-07-15T09:34:52Z</time></trkpt><trkpt lat="51.8280504551" lon="-2.0135973394"><ele>214.99</ele><time>2015-07-15T09:34:53Z</time></trkpt><trkpt lat="51.8280921970" lon="-2.0135415997"><ele>218.84</ele><time>2015-07-15T09:34:58Z</time></trkpt><trkpt lat="51.8281002436" lon="-2.0135377441"><ele>213.07</ele><time>2015-07-15T09:34:59Z</time></trkpt><trkpt lat="51.8281097990" lon="-2.0135281049"><ele>217.40</ele><time>2015-07-15T09:35:00Z</time></trkpt><trkpt lat="51.8281227071" lon="-2.0135157835"><ele>213.55</ele><time>2015-07-15T09:35:02Z</time></trkpt><trkpt lat="51.8281275686" lon="-2.0135074016"><ele>216.91</ele><time>2015-07-15T09:35:03Z</time></trkpt><trkpt lat="51.8281668797" lon="-2.0134638157"><ele>214.51</ele><time>2015-07-15T09:35:07Z</time></trkpt><trkpt lat="51.8281869963" lon="-2.0134385861"><ele>217.88</ele><time>2015-07-15T09:35:09Z</time></trkpt><trkpt lat="51.8282046821" lon="-2.0134270191"><ele>214.03</ele><time>2015-07-15T09:35:11Z</time></trkpt><trkpt lat="51.8282124773" lon="-2.0134214032"><ele>217.40</ele><time>2015-07-15T09:35:12Z</time></trkpt><trkpt lat="51.8282425683" lon="-2.0133825950"><ele>218.36</ele><time>2015-07-15T09:35:17Z</time></trkpt><trkpt lat="51.8282517046" lon="-2.0133696031"><ele>214.99</ele><time>2015-07-15T09:35:18Z</time></trkpt><trkpt lat="51.8282625172" lon="-2.0133595448"><ele>218.84</ele><time>2015-07-15T09:35:19Z</time></trkpt><trkpt lat="51.8283434026" lon="-2.0132758096"><ele>217.40</ele><time>2015-07-15T09:35:27Z</time></trkpt><trkpt lat="51.8283522036" lon="-2.0132687688"><ele>219.80</ele><time>2015-07-15T09:35:28Z</time></trkpt><trkpt lat="51.8283727393" lon="-2.0132487360"><ele>218.36</ele><time>2015-07-15T09:35:30Z</time></trkpt><trkpt lat="51.8283817917" lon="-2.0132413600"><ele>218.36</ele><time>2015-07-15T09:35:31Z</time></trkpt><trkpt lat="51.8284085300" lon="-2.0132176392"><ele>223.16</ele><time>2015-07-15T09:35:34Z</time></trkpt><trkpt lat="51.8284112960" lon="-2.0132100116"><ele>219.80</ele><time>2015-07-15T09:35:35Z</time></trkpt><trkpt lat="51.8284110446" lon="-2.0132046472"><ele>225.09</ele><time>2015-07-15T09:35:42Z</time></trkpt><trkpt lat="51.8284106255" lon="-2.0132045634"><ele>219.80</ele><time>2015-07-15T09:35:43Z</time></trkpt><trkpt lat="51.8284131400" lon="-2.0132042281"><ele>220.76</ele><time>2015-07-15T09:35:52Z</time></trkpt><trkpt lat="51.8284107931" lon="-2.0131806750"><ele>217.40</ele><time>2015-07-15T09:35:54Z</time></trkpt><trkpt lat="51.8284053449" lon="-2.0131475665"><ele>224.61</ele><time>2015-07-15T09:35:56Z</time></trkpt><trkpt lat="51.8284004834" lon="-2.0131312218"><ele>219.80</ele><time>2015-07-15T09:35:57Z</time></trkpt><trkpt lat="51.8283894192" lon="-2.0130982809"><ele>218.84</ele><time>2015-07-15T09:36:01Z</time></trkpt><trkpt lat="51.8283957895" lon="-2.0130851213"><ele>224.12</ele><time>2015-07-15T09:36:03Z</time></trkpt><trkpt lat="51.8284086138" lon="-2.0130826905"><ele>217.88</ele><time>2015-07-15T09:36:04Z</time></trkpt><trkpt lat="51.8284372799" lon="-2.0130542759"><ele>222.20</ele><time>2015-07-15T09:36:07Z</time></trkpt><trkpt lat="51.8284480087" lon="-2.0130497497"><ele>225.09</ele><time>2015-07-15T09:36:08Z</time></trkpt><trkpt lat="51.8284755014" lon="-2.0130205806"><ele>221.72</ele><time>2015-07-15T09:36:11Z</time></trkpt><trkpt lat="51.8284964561" lon="-2.0129992906"><ele>218.84</ele><time>2015-07-15T09:36:13Z</time></trkpt><trkpt lat="51.8285216019" lon="-2.0129887294"><ele>223.16</ele><time>2015-07-15T09:36:15Z</time></trkpt><trkpt lat="51.8285513576" lon="-2.0129659306"><ele>218.36</ele><time>2015-07-15T09:36:18Z</time></trkpt><trkpt lat="51.8285624217" lon="-2.0129606500"><ele>221.72</ele><time>2015-07-15T09:36:19Z</time></trkpt><trkpt lat="51.8285829574" lon="-2.0129497536"><ele>222.20</ele><time>2015-07-15T09:36:21Z</time></trkpt><trkpt lat="51.8286197539" lon="-2.0129329059"><ele>221.72</ele><time>2015-07-15T09:36:25Z</time></trkpt><trkpt lat="51.8286204245" lon="-2.0129329897"><ele>223.16</ele><time>2015-07-15T09:36:27Z</time></trkpt><trkpt lat="51.8286221847" lon="-2.0129308105"><ele>235.18</ele><time>2015-07-15T09:36:33Z</time></trkpt><trkpt lat="51.8286226038" lon="-2.0129313134"><ele>222.68</ele><time>2015-07-15T09:36:35Z</time></trkpt><trkpt lat="51.8286225200" lon="-2.0129314810"><ele>222.68</ele><time>2015-07-15T09:36:36Z</time></trkpt><trkpt lat="51.8286811095" lon="-2.0128754061"><ele>222.20</ele><time>2015-07-15T09:36:45Z</time></trkpt><trkpt lat="51.8288120348" lon="-2.0127391163"><ele>226.05</ele><time>2015-07-15T09:37:01Z</time></trkpt><trkpt lat="51.8288194947" lon="-2.0127331652"><ele>222.20</ele><time>2015-07-15T09:37:02Z</time></trkpt><trkpt lat="51.8288350012" lon="-2.0127102826"><ele>225.09</ele><time>2015-07-15T09:37:05Z</time></trkpt><trkpt lat="51.8288945965" lon="-2.0126357675"><ele>223.64</ele><time>2015-07-15T09:37:16Z</time></trkpt><trkpt lat="51.8290422857" lon="-2.0124993101"><ele>226.05</ele><time>2015-07-15T09:37:31Z</time></trkpt><trkpt lat="51.8290797528" lon="-2.0124989748"><ele>225.57</ele><time>2015-07-15T09:37:58Z</time></trkpt><trkpt lat="51.8291035574" lon="-2.0125545468"><ele>227.01</ele><time>2015-07-15T09:38:31Z</time></trkpt><trkpt lat="51.8291313853" lon="-2.0127310697"><ele>224.61</ele><time>2015-07-15T09:38:46Z</time></trkpt><trkpt lat="51.8292359915" lon="-2.0128958579"><ele>227.01</ele><time>2015-07-15T09:39:04Z</time></trkpt><trkpt lat="51.8292591255" lon="-2.0129379351"><ele>227.01</ele><time>2015-07-15T09:39:21Z</time></trkpt><trkpt lat="51.8292919826" lon="-2.0129343309"><ele>220.28</ele><time>2015-07-15T09:39:43Z</time></trkpt><trkpt lat="51.8292919826" lon="-2.0129343309"><ele>230.85</ele><time>2015-07-15T09:39:44Z</time></trkpt><trkpt lat="51.8292951677" lon="-2.0129321516"><ele>227.01</ele><time>2015-07-15T09:39:45Z</time></trkpt><trkpt lat="51.8292908929" lon="-2.0129013900"><ele>233.74</ele><time>2015-07-15T09:39:51Z</time></trkpt><trkpt lat="51.8292828463" lon="-2.0128989592"><ele>228.45</ele><time>2015-07-15T09:39:52Z</time></trkpt><trkpt lat="51.8293070700" lon="-2.0129156392"><ele>225.09</ele><time>2015-07-15T09:39:54Z</time></trkpt><trkpt lat="51.8293271028" lon="-2.0129354205"><ele>228.93</ele><time>2015-07-15T09:39:56Z</time></trkpt><trkpt lat="51.8293925654" lon="-2.0130277891"><ele>228.45</ele><time>2015-07-15T09:40:13Z</time></trkpt><trkpt lat="51.8294578604" lon="-2.0131058246"><ele>226.05</ele><time>2015-07-15T09:40:20Z</time></trkpt><trkpt lat="51.8294734508" lon="-2.0131463930"><ele>229.89</ele><time>2015-07-15T09:40:23Z</time></trkpt><trkpt lat="51.8294872809" lon="-2.0132030547"><ele>225.57</ele><time>2015-07-15T09:40:30Z</time></trkpt><trkpt lat="51.8294872809" lon="-2.0132032223"><ele>226.05</ele><time>2015-07-15T09:40:31Z</time></trkpt><trkpt lat="51.8294871971" lon="-2.0132035576"><ele>229.41</ele><time>2015-07-15T09:40:33Z</time></trkpt><trkpt lat="51.8294871133" lon="-2.0132036414"><ele>228.93</ele><time>2015-07-15T09:40:34Z</time></trkpt><trkpt lat="51.8294871133" lon="-2.0132038090"><ele>238.06</ele><time>2015-07-15T09:40:35Z</time></trkpt><trkpt lat="51.8294871133" lon="-2.0132040605"><ele>230.85</ele><time>2015-07-15T09:40:36Z</time></trkpt><trkpt lat="51.8294877000" lon="-2.0132080838"><ele>229.41</ele><time>2015-07-15T09:40:38Z</time></trkpt><trkpt lat="51.8294829223" lon="-2.0132421982"><ele>226.53</ele><time>2015-07-15T09:40:52Z</time></trkpt><trkpt lat="51.8294828385" lon="-2.0132414438"><ele>227.97</ele><time>2015-07-15T09:40:53Z</time></trkpt><trkpt lat="51.8294817489" lon="-2.0132514182"><ele>233.74</ele><time>2015-07-15T09:41:06Z</time></trkpt><trkpt lat="51.8294809107" lon="-2.0132514182"><ele>230.85</ele><time>2015-07-15T09:41:07Z</time></trkpt><trkpt lat="51.8294806592" lon="-2.0132508315"><ele>228.93</ele><time>2015-07-15T09:41:08Z</time></trkpt><trkpt lat="51.8295567669" lon="-2.0133309625"><ele>229.89</ele><time>2015-07-15T09:41:16Z</time></trkpt><trkpt lat="51.8295881152" lon="-2.0133649930"><ele>230.37</ele><time>2015-07-15T09:41:20Z</time></trkpt><trkpt lat="51.8295895401" lon="-2.0133706927"><ele>239.02</ele><time>2015-07-15T09:41:21Z</time></trkpt><trkpt lat="51.8295892887" lon="-2.0133757219"><ele>228.45</ele><time>2015-07-15T09:41:22Z</time></trkpt><trkpt lat="51.8295883667" lon="-2.0133787394"><ele>232.30</ele><time>2015-07-15T09:41:32Z</time></trkpt><trkpt lat="51.8295880314" lon="-2.0133788232"><ele>227.49</ele><time>2015-07-15T09:41:33Z</time></trkpt><trkpt lat="51.8295936473" lon="-2.0133802481"><ele>231.33</ele><time>2015-07-15T09:41:34Z</time></trkpt><trkpt lat="51.8296054658" lon="-2.0133876242"><ele>227.97</ele><time>2015-07-15T09:41:36Z</time></trkpt><trkpt lat="51.8296132609" lon="-2.0133936591"><ele>231.81</ele><time>2015-07-15T09:41:37Z</time></trkpt><trkpt lat="51.8296445254" lon="-2.0134416874"><ele>231.33</ele><time>2015-07-15T09:41:53Z</time></trkpt><trkpt lat="51.8296400830" lon="-2.0134598762"><ele>232.30</ele><time>2015-07-15T09:42:15Z</time></trkpt><trkpt lat="51.8296405021" lon="-2.0134616364"><ele>231.33</ele><time>2015-07-15T09:42:23Z</time></trkpt><trkpt lat="51.8296686653" lon="-2.0134721976"><ele>228.45</ele><time>2015-07-15T09:42:26Z</time></trkpt><trkpt lat="51.8296788912" lon="-2.0134778973"><ele>230.85</ele><time>2015-07-15T09:42:27Z</time></trkpt><trkpt lat="51.8297086470" lon="-2.0135039650"><ele>234.22</ele><time>2015-07-15T09:42:30Z</time></trkpt><trkpt lat="51.8297519814" lon="-2.0135752112"><ele>230.37</ele><time>2015-07-15T09:42:35Z</time></trkpt><trkpt lat="51.8297582678" lon="-2.0135821681"><ele>232.30</ele><time>2015-07-15T09:42:36Z</time></trkpt><trkpt lat="51.8297742773" lon="-2.0136045478"><ele>235.66</ele><time>2015-07-15T09:42:38Z</time></trkpt><trkpt lat="51.8297815695" lon="-2.0136185456"><ele>230.37</ele><time>2015-07-15T09:42:39Z</time></trkpt><trkpt lat="51.8297864310" lon="-2.0136344712"><ele>231.81</ele><time>2015-07-15T09:42:40Z</time></trkpt><trkpt lat="51.8298064638" lon="-2.0136736147"><ele>235.66</ele><time>2015-07-15T09:42:43Z</time></trkpt><trkpt lat="51.8298114091" lon="-2.0136845112"><ele>232.78</ele><time>2015-07-15T09:42:44Z</time></trkpt><trkpt lat="51.8298425060" lon="-2.0137305278"><ele>234.70</ele><time>2015-07-15T09:42:48Z</time></trkpt><trkpt lat="51.8299764488" lon="-2.0138984174"><ele>232.78</ele><time>2015-07-15T09:43:03Z</time></trkpt><trkpt lat="51.8300183583" lon="-2.0139194559"><ele>236.14</ele><time>2015-07-15T09:43:06Z</time></trkpt><trkpt lat="51.8300374690" lon="-2.0139435120"><ele>233.26</ele><time>2015-07-15T09:43:08Z</time></trkpt><trkpt lat="51.8300471082" lon="-2.0139521454"><ele>234.70</ele><time>2015-07-15T09:43:09Z</time></trkpt><trkpt lat="51.8300839886" lon="-2.0140171889"><ele>235.66</ele><time>2015-07-15T09:43:24Z</time></trkpt><trkpt lat="51.8300935440" lon="-2.0140253194"><ele>234.70</ele><time>2015-07-15T09:43:34Z</time></trkpt><trkpt lat="51.8301019259" lon="-2.0140277501"><ele>235.18</ele><time>2015-07-15T09:43:58Z</time></trkpt><trkpt lat="51.8300996628" lon="-2.0140426699"><ele>235.66</ele><time>2015-07-15T09:44:26Z</time></trkpt><trkpt lat="51.8301310111" lon="-2.0141033549"><ele>235.18</ele><time>2015-07-15T09:44:34Z</time></trkpt><trkpt lat="51.8301813863" lon="-2.0141758583"><ele>236.62</ele><time>2015-07-15T09:44:41Z</time></trkpt><trkpt lat="51.8302009162" lon="-2.0141887665"><ele>237.58</ele><time>2015-07-15T09:44:43Z</time></trkpt><trkpt lat="51.8302196078" lon="-2.0141990762"><ele>235.18</ele><time>2015-07-15T09:44:45Z</time></trkpt><trkpt lat="51.8302477710" lon="-2.0142241381"><ele>238.54</ele><time>2015-07-15T09:44:48Z</time></trkpt><trkpt lat="51.8302663788" lon="-2.0142392255"><ele>237.58</ele><time>2015-07-15T09:44:50Z</time></trkpt><trkpt lat="51.8302999903" lon="-2.0142606832"><ele>239.51</ele><time>2015-07-15T09:44:53Z</time></trkpt><trkpt lat="51.8303128146" lon="-2.0142673049"><ele>238.54</ele><time>2015-07-15T09:44:54Z</time></trkpt><trkpt lat="51.8304466736" lon="-2.0144408941"><ele>238.06</ele><time>2015-07-15T09:45:08Z</time></trkpt><trkpt lat="51.8304973003" lon="-2.0145221986"><ele>238.06</ele><time>2015-07-15T09:45:14Z</time></trkpt><trkpt lat="51.8305216078" lon="-2.0145381242"><ele>239.51</ele><time>2015-07-15T09:45:16Z</time></trkpt><trkpt lat="51.8306518625" lon="-2.0146588236"><ele>236.62</ele><time>2015-07-15T09:45:29Z</time></trkpt><trkpt lat="51.8306621723" lon="-2.0146724023"><ele>241.43</ele><time>2015-07-15T09:45:30Z</time></trkpt><trkpt lat="51.8307152297" lon="-2.0147267170"><ele>241.43</ele><time>2015-07-15T09:45:35Z</time></trkpt><trkpt lat="51.8307498470" lon="-2.0147580653"><ele>238.54</ele><time>2015-07-15T09:45:38Z</time></trkpt><trkpt lat="51.8307710532" lon="-2.0147837978"><ele>241.43</ele><time>2015-07-15T09:45:40Z</time></trkpt><trkpt lat="51.8309443071" lon="-2.0149355941"><ele>240.95</ele><time>2015-07-15T09:45:56Z</time></trkpt><trkpt lat="51.8309736438" lon="-2.0149714686"><ele>245.27</ele><time>2015-07-15T09:45:59Z</time></trkpt><trkpt lat="51.8309874739" lon="-2.0149856340"><ele>241.43</ele><time>2015-07-15T09:46:01Z</time></trkpt><trkpt lat="51.8309956882" lon="-2.0149968658"><ele>241.91</ele><time>2015-07-15T09:46:02Z</time></trkpt><trkpt lat="51.8310293835" lon="-2.0150206704"><ele>245.75</ele><time>2015-07-15T09:46:05Z</time></trkpt><trkpt lat="51.8311562017" lon="-2.0151772443"><ele>244.31</ele><time>2015-07-15T09:46:19Z</time></trkpt><trkpt lat="51.8311866280" lon="-2.0151916612"><ele>246.72</ele><time>2015-07-15T09:46:22Z</time></trkpt><trkpt lat="51.8312036432" lon="-2.0152138732"><ele>243.35</ele><time>2015-07-15T09:46:24Z</time></trkpt><trkpt lat="51.8312431220" lon="-2.0152400248"><ele>247.20</ele><time>2015-07-15T09:46:27Z</time></trkpt><trkpt lat="51.8312760629" lon="-2.0152730495"><ele>243.83</ele><time>2015-07-15T09:46:30Z</time></trkpt><trkpt lat="51.8313245103" lon="-2.0153419487"><ele>247.20</ele><time>2015-07-15T09:46:35Z</time></trkpt><trkpt lat="51.8313521706" lon="-2.0153580420"><ele>245.27</ele><time>2015-07-15T09:46:38Z</time></trkpt><trkpt lat="51.8314009532" lon="-2.0153944194"><ele>248.64</ele><time>2015-07-15T09:46:42Z</time></trkpt><trkpt lat="51.8314540945" lon="-2.0154429507"><ele>245.75</ele><time>2015-07-15T09:46:47Z</time></trkpt><trkpt lat="51.8314895499" lon="-2.0154613908"><ele>248.64</ele><time>2015-07-15T09:46:50Z</time></trkpt><trkpt lat="51.8315301184" lon="-2.0154801663"><ele>246.23</ele><time>2015-07-15T09:46:54Z</time></trkpt><trkpt lat="51.8315667473" lon="-2.0155071560"><ele>249.12</ele><time>2015-07-15T09:46:57Z</time></trkpt><trkpt lat="51.8317048810" lon="-2.0155720320"><ele>246.23</ele><time>2015-07-15T09:47:08Z</time></trkpt><trkpt lat="51.8317132629" lon="-2.0155848563"><ele>248.64</ele><time>2015-07-15T09:47:09Z</time></trkpt><trkpt lat="51.8317437731" lon="-2.0156335551"><ele>250.56</ele><time>2015-07-15T09:47:16Z</time></trkpt><trkpt lat="51.8317620456" lon="-2.0156483073"><ele>247.20</ele><time>2015-07-15T09:47:18Z</time></trkpt><trkpt lat="51.8317875266" lon="-2.0156647358"><ele>250.56</ele><time>2015-07-15T09:47:20Z</time></trkpt><trkpt lat="51.8319031131" lon="-2.0157383289"><ele>247.20</ele><time>2015-07-15T09:47:36Z</time></trkpt><trkpt lat="51.8319104053" lon="-2.0157404244"><ele>250.56</ele><time>2015-07-15T09:47:37Z</time></trkpt><trkpt lat="51.8319433462" lon="-2.0157545060"><ele>252.48</ele><time>2015-07-15T09:47:40Z</time></trkpt><trkpt lat="51.8319591042" lon="-2.0157675818"><ele>249.12</ele><time>2015-07-15T09:47:42Z</time></trkpt><trkpt lat="51.8319761194" lon="-2.0157786459"><ele>251.04</ele><time>2015-07-15T09:47:44Z</time></trkpt><trkpt lat="51.8321513012" lon="-2.0158540830"><ele>252.48</ele><time>2015-07-15T09:48:01Z</time></trkpt><trkpt lat="51.8323361222" lon="-2.0161347091"><ele>252.00</ele><time>2015-07-15T09:48:21Z</time></trkpt><trkpt lat="51.8323436659" lon="-2.0161570050"><ele>252.48</ele><time>2015-07-15T09:48:22Z</time></trkpt><trkpt lat="51.8324831408" lon="-2.0164175984"><ele>253.93</ele><time>2015-07-15T09:48:43Z</time></trkpt><trkpt lat="51.8325040117" lon="-2.0164581668"><ele>253.44</ele><time>2015-07-15T09:48:47Z</time></trkpt><trkpt lat="51.8326577358" lon="-2.0166216977"><ele>253.44</ele><time>2015-07-15T09:49:06Z</time></trkpt><trkpt lat="51.8327645212" lon="-2.0167086180"><ele>255.37</ele><time>2015-07-15T09:49:26Z</time></trkpt><trkpt lat="51.8327609170" lon="-2.0166879147"><ele>250.56</ele><time>2015-07-15T09:49:37Z</time></trkpt><trkpt lat="51.8327607494" lon="-2.0166830532"><ele>252.48</ele><time>2015-07-15T09:49:38Z</time></trkpt><trkpt lat="51.8327602465" lon="-2.0166828856"><ele>253.93</ele><time>2015-07-15T09:49:40Z</time></trkpt><trkpt lat="51.8327435665" lon="-2.0167970471"><ele>253.44</ele><time>2015-07-15T09:49:58Z</time></trkpt><trkpt lat="51.8327768426" lon="-2.0168376993"><ele>256.33</ele><time>2015-07-15T09:50:01Z</time></trkpt><trkpt lat="51.8328024913" lon="-2.0168599114"><ele>253.93</ele><time>2015-07-15T09:50:04Z</time></trkpt><trkpt lat="51.8330178224" lon="-2.0170594845"><ele>254.89</ele><time>2015-07-15T09:50:23Z</time></trkpt><trkpt lat="51.8330652639" lon="-2.0170910843"><ele>256.33</ele><time>2015-07-15T09:50:27Z</time></trkpt><trkpt lat="51.8330881465" lon="-2.0171122067"><ele>253.93</ele><time>2015-07-15T09:50:30Z</time></trkpt><trkpt lat="51.8331206683" lon="-2.0171795972"><ele>255.37</ele><time>2015-07-15T09:50:35Z</time></trkpt><trkpt lat="51.8332122825" lon="-2.0173117798"><ele>255.37</ele><time>2015-07-15T09:50:48Z</time></trkpt><trkpt lat="51.8332748115" lon="-2.0174144581"><ele>254.41</ele><time>2015-07-15T09:50:56Z</time></trkpt><trkpt lat="51.8333044834" lon="-2.0174491592"><ele>255.37</ele><time>2015-07-15T09:50:58Z</time></trkpt><trkpt lat="51.8335262686" lon="-2.0177561045"><ele>254.89</ele><time>2015-07-15T09:51:18Z</time></trkpt><trkpt lat="51.8336328864" lon="-2.0178875327"><ele>253.44</ele><time>2015-07-15T09:51:31Z</time></trkpt><trkpt lat="51.8337048031" lon="-2.0179687534"><ele>253.44</ele><time>2015-07-15T09:51:40Z</time></trkpt><trkpt lat="51.8337775581" lon="-2.0180675760"><ele>253.44</ele><time>2015-07-15T09:51:46Z</time></trkpt><trkpt lat="51.8338862713" lon="-2.0181542449"><ele>253.44</ele><time>2015-07-15T09:52:00Z</time></trkpt><trkpt lat="51.8339283485" lon="-2.0183067955"><ele>252.00</ele><time>2015-07-15T09:52:20Z</time></trkpt><trkpt lat="51.8339648098" lon="-2.0183693245"><ele>252.48</ele><time>2015-07-15T09:52:39Z</time></trkpt><trkpt lat="51.8341452722" lon="-2.0185804646"><ele>254.41</ele><time>2015-07-15T09:52:54Z</time></trkpt><trkpt lat="51.8342842441" lon="-2.0187440794"><ele>253.93</ele><time>2015-07-15T09:53:14Z</time></trkpt><trkpt lat="51.8344466854" lon="-2.0189252123"><ele>254.89</ele><time>2015-07-15T09:53:26Z</time></trkpt><trkpt lat="51.8346140720" lon="-2.0192109514"><ele>255.37</ele><time>2015-07-15T09:53:48Z</time></trkpt><trkpt lat="51.8346490245" lon="-2.0192473289"><ele>256.81</ele><time>2015-07-15T09:53:52Z</time></trkpt><trkpt lat="51.8347278144" lon="-2.0193565451"><ele>254.89</ele><time>2015-07-15T09:54:05Z</time></trkpt><trkpt lat="51.8348019104" lon="-2.0195038989"><ele>256.81</ele><time>2015-07-15T09:54:26Z</time></trkpt><trkpt lat="51.8350285571" lon="-2.0197369996"><ele>257.29</ele><time>2015-07-15T09:54:46Z</time></trkpt><trkpt lat="51.8351557944" lon="-2.0199291129"><ele>259.69</ele><time>2015-07-15T09:55:02Z</time></trkpt><trkpt lat="51.8352158926" lon="-2.0199748781"><ele>260.17</ele><time>2015-07-15T09:55:10Z</time></trkpt><trkpt lat="51.8352459837" lon="-2.0199737884"><ele>260.65</ele><time>2015-07-15T09:55:15Z</time></trkpt><trkpt lat="51.8353642523" lon="-2.0202145167"><ele>260.65</ele><time>2015-07-15T09:55:36Z</time></trkpt><trkpt lat="51.8355111871" lon="-2.0203815680"><ele>262.10</ele><time>2015-07-15T09:55:59Z</time></trkpt><trkpt lat="51.8355038948" lon="-2.0205066260"><ele>262.58</ele><time>2015-07-15T09:56:20Z</time></trkpt><trkpt lat="51.8355260231" lon="-2.0205821469"><ele>262.58</ele><time>2015-07-15T09:56:37Z</time></trkpt><trkpt lat="51.8355471455" lon="-2.0205782913"><ele>261.14</ele><time>2015-07-15T09:56:58Z</time></trkpt><trkpt lat="51.8355381768" lon="-2.0206203684"><ele>264.02</ele><time>2015-07-15T09:57:06Z</time></trkpt><trkpt lat="51.8355546892" lon="-2.0206753537"><ele>260.17</ele><time>2015-07-15T09:57:11Z</time></trkpt><trkpt lat="51.8355614785" lon="-2.0206902735"><ele>265.46</ele><time>2015-07-15T09:57:13Z</time></trkpt><trkpt lat="51.8355667591" lon="-2.0206951350"><ele>261.62</ele><time>2015-07-15T09:57:14Z</time></trkpt><trkpt lat="51.8356271088" lon="-2.0207997411"><ele>266.42</ele><time>2015-07-15T09:57:29Z</time></trkpt><trkpt lat="51.8356248457" lon="-2.0207950473"><ele>261.62</ele><time>2015-07-15T09:57:30Z</time></trkpt><trkpt lat="51.8355545215" lon="-2.0206300914"><ele>262.58</ele><time>2015-07-15T09:58:01Z</time></trkpt><trkpt lat="51.8355473131" lon="-2.0206404012"><ele>263.06</ele><time>2015-07-15T09:58:28Z</time></trkpt><trkpt lat="51.8355447985" lon="-2.0206435863"><ele>262.58</ele><time>2015-07-15T09:58:57Z</time></trkpt><trkpt lat="51.8355447147" lon="-2.0206336956"><ele>263.06</ele><time>2015-07-15T09:59:29Z</time></trkpt><trkpt lat="51.8355522584" lon="-2.0206150040"><ele>263.06</ele><time>2015-07-15T10:00:06Z</time></trkpt><trkpt lat="51.8355431221" lon="-2.0206106454"><ele>263.06</ele><time>2015-07-15T10:00:33Z</time></trkpt><trkpt lat="51.8355460558" lon="-2.0206331927"><ele>263.06</ele><time>2015-07-15T10:00:56Z</time></trkpt><trkpt lat="51.8355256878" lon="-2.0205772854"><ele>264.98</ele><time>2015-07-15T10:01:20Z</time></trkpt><trkpt lat="51.8355338182" lon="-2.0205889363"><ele>263.06</ele><time>2015-07-15T10:01:43Z</time></trkpt><trkpt lat="51.8355280347" lon="-2.0205875114"><ele>263.54</ele><time>2015-07-15T10:02:04Z</time></trkpt><trkpt lat="51.8355363328" lon="-2.0205673948"><ele>263.54</ele><time>2015-07-15T10:02:26Z</time></trkpt><trkpt lat="51.8355390150" lon="-2.0205900259"><ele>263.54</ele><time>2015-07-15T10:02:45Z</time></trkpt><trkpt lat="51.8355308007" lon="-2.0205926243"><ele>263.06</ele><time>2015-07-15T10:03:08Z</time></trkpt><trkpt lat="51.8355303816" lon="-2.0205765311"><ele>263.06</ele><time>2015-07-15T10:03:34Z</time></trkpt><trkpt lat="51.8355374224" lon="-2.0205792133"><ele>263.06</ele><time>2015-07-15T10:04:00Z</time></trkpt><trkpt lat="51.8355462234" lon="-2.0205891877"><ele>263.06</ele><time>2015-07-15T10:04:25Z</time></trkpt><trkpt lat="51.8355565332" lon="-2.0206035208"><ele>263.54</ele><time>2015-07-15T10:04:53Z</time></trkpt><trkpt lat="51.8355643284" lon="-2.0206004195"><ele>263.54</ele><time>2015-07-15T10:05:27Z</time></trkpt><trkpt lat="51.8355672620" lon="-2.0206107292"><ele>263.06</ele><time>2015-07-15T10:05:57Z</time></trkpt><trkpt lat="51.8356194813" lon="-2.0205600187"><ele>264.02</ele><time>2015-07-15T10:06:21Z</time></trkpt><trkpt lat="51.8356230855" lon="-2.0205692388"><ele>263.54</ele><time>2015-07-15T10:06:52Z</time></trkpt><trkpt lat="51.8356010411" lon="-2.0205722563"><ele>263.54</ele><time>2015-07-15T10:07:20Z</time></trkpt><trkpt lat="51.8355849478" lon="-2.0205906965"><ele>263.54</ele><time>2015-07-15T10:07:42Z</time></trkpt><trkpt lat="51.8355810083" lon="-2.0205949713"><ele>263.54</ele><time>2015-07-15T10:08:16Z</time></trkpt><trkpt lat="51.8355862051" lon="-2.0205937978"><ele>263.54</ele><time>2015-07-15T10:08:44Z</time></trkpt><trkpt lat="51.8355916534" lon="-2.0206077117"><ele>263.06</ele><time>2015-07-15T10:09:06Z</time></trkpt><trkpt lat="51.8355702795" lon="-2.0206170157"><ele>262.10</ele><time>2015-07-15T10:09:16Z</time></trkpt><trkpt lat="51.8354985304" lon="-2.0206261519"><ele>263.54</ele><time>2015-07-15T10:09:22Z</time></trkpt><trkpt lat="51.8354777433" lon="-2.0206371322"><ele>267.38</ele><time>2015-07-15T10:09:24Z</time></trkpt><trkpt lat="51.8354659248" lon="-2.0206519682"><ele>261.14</ele><time>2015-07-15T10:09:25Z</time></trkpt><trkpt lat="51.8354567885" lon="-2.0206562430"><ele>264.98</ele><time>2015-07-15T10:09:26Z</time></trkpt><trkpt lat="51.8354520947" lon="-2.0206644572"><ele>261.62</ele><time>2015-07-15T10:09:31Z</time></trkpt><trkpt lat="51.8354619015" lon="-2.0206690673"><ele>263.06</ele><time>2015-07-15T10:09:34Z</time></trkpt><trkpt lat="51.8354589678" lon="-2.0206759404"><ele>268.35</ele><time>2015-07-15T10:09:40Z</time></trkpt><trkpt lat="51.8354591355" lon="-2.0206765272"><ele>264.02</ele><time>2015-07-15T10:09:41Z</time></trkpt><trkpt lat="51.8355226703" lon="-2.0206553210"><ele>264.02</ele><time>2015-07-15T10:09:56Z</time></trkpt><trkpt lat="51.8355235923" lon="-2.0206564106"><ele>271.23</ele><time>2015-07-15T10:09:59Z</time></trkpt><trkpt lat="51.8355244305" lon="-2.0206565782"><ele>264.02</ele><time>2015-07-15T10:10:00Z</time></trkpt><trkpt lat="51.8355405238" lon="-2.0206429996"><ele>260.65</ele><time>2015-07-15T10:10:03Z</time></trkpt><trkpt lat="51.8355489057" lon="-2.0206356235"><ele>264.50</ele><time>2015-07-15T10:10:05Z</time></trkpt><trkpt lat="51.8356851954" lon="-2.0206001680"><ele>264.50</ele><time>2015-07-15T10:10:16Z</time></trkpt><trkpt lat="51.8357413542" lon="-2.0206248108"><ele>265.46</ele><time>2015-07-15T10:10:22Z</time></trkpt><trkpt lat="51.8357542623" lon="-2.0206327736"><ele>264.02</ele><time>2015-07-15T10:10:24Z</time></trkpt><trkpt lat="51.8358022068" lon="-2.0206609368"><ele>266.90</ele><time>2015-07-15T10:10:28Z</time></trkpt><trkpt lat="51.8358143605" lon="-2.0206743479"><ele>263.06</ele><time>2015-07-15T10:10:30Z</time></trkpt><trkpt lat="51.8358353991" lon="-2.0207083784"><ele>266.90</ele><time>2015-07-15T10:10:33Z</time></trkpt><trkpt lat="51.8358464632" lon="-2.0207177661"><ele>264.02</ele><time>2015-07-15T10:10:34Z</time></trkpt><trkpt lat="51.8358872831" lon="-2.0207348652"><ele>266.90</ele><time>2015-07-15T10:10:37Z</time></trkpt><trkpt lat="51.8359166197" lon="-2.0207399782"><ele>263.54</ele><time>2015-07-15T10:10:40Z</time></trkpt><trkpt lat="51.8359344732" lon="-2.0207446720"><ele>266.42</ele><time>2015-07-15T10:10:42Z</time></trkpt><trkpt lat="51.8359428551" lon="-2.0207473543"><ele>266.42</ele><time>2015-07-15T10:10:43Z</time></trkpt><trkpt lat="51.8359523267" lon="-2.0207487792"><ele>263.54</ele><time>2015-07-15T10:10:44Z</time></trkpt><trkpt lat="51.8359665759" lon="-2.0207564067"><ele>266.90</ele><time>2015-07-15T10:10:46Z</time></trkpt><trkpt lat="51.8361151870" lon="-2.0208429080"><ele>265.94</ele><time>2015-07-15T10:11:06Z</time></trkpt><trkpt lat="51.8362712581" lon="-2.0209232904"><ele>268.35</ele><time>2015-07-15T10:11:24Z</time></trkpt><trkpt lat="51.8362889439" lon="-2.0209298283"><ele>266.42</ele><time>2015-07-15T10:11:26Z</time></trkpt><trkpt lat="51.8363769539" lon="-2.0209701452"><ele>266.42</ele><time>2015-07-15T10:11:35Z</time></trkpt><trkpt lat="51.8365554884" lon="-2.0210700575"><ele>267.38</ele><time>2015-07-15T10:11:56Z</time></trkpt><trkpt lat="51.8367178459" lon="-2.0212151483"><ele>265.94</ele><time>2015-07-15T10:12:16Z</time></trkpt><trkpt lat="51.8368652835" lon="-2.0213959459"><ele>264.02</ele><time>2015-07-15T10:12:37Z</time></trkpt><trkpt lat="51.8369826302" lon="-2.0215484966"><ele>262.58</ele><time>2015-07-15T10:12:59Z</time></trkpt><trkpt lat="51.8371970393" lon="-2.0216848701"><ele>261.14</ele><time>2015-07-15T10:13:18Z</time></trkpt><trkpt lat="51.8373064231" lon="-2.0218084194"><ele>259.21</ele><time>2015-07-15T10:13:38Z</time></trkpt><trkpt lat="51.8373820279" lon="-2.0218566153"><ele>258.73</ele><time>2015-07-15T10:14:00Z</time></trkpt><trkpt lat="51.8375484087" lon="-2.0218728762"><ele>258.73</ele><time>2015-07-15T10:14:20Z</time></trkpt><trkpt lat="51.8376305513" lon="-2.0219418593"><ele>257.29</ele><time>2015-07-15T10:14:39Z</time></trkpt><trkpt lat="51.8376634084" lon="-2.0219348185"><ele>256.81</ele><time>2015-07-15T10:14:45Z</time></trkpt><trkpt lat="51.8376911525" lon="-2.0219623111"><ele>256.81</ele><time>2015-07-15T10:15:08Z</time></trkpt><trkpt lat="51.8376252707" lon="-2.0221715234"><ele>256.33</ele><time>2015-07-15T10:15:26Z</time></trkpt><trkpt lat="51.8376155477" lon="-2.0221820846"><ele>252.96</ele><time>2015-07-15T10:15:34Z</time></trkpt><trkpt lat="51.8376111053" lon="-2.0221795700"><ele>258.25</ele><time>2015-07-15T10:15:35Z</time></trkpt><trkpt lat="51.8376049027" lon="-2.0221781451"><ele>253.93</ele><time>2015-07-15T10:15:36Z</time></trkpt><trkpt lat="51.8375707883" lon="-2.0222228207"><ele>257.29</ele><time>2015-07-15T10:15:39Z</time></trkpt><trkpt lat="51.8375709560" lon="-2.0222235750"><ele>254.41</ele><time>2015-07-15T10:15:40Z</time></trkpt><trkpt lat="51.8375619035" lon="-2.0222873613"><ele>257.29</ele><time>2015-07-15T10:15:46Z</time></trkpt><trkpt lat="51.8374860473" lon="-2.0223389100"><ele>256.81</ele><time>2015-07-15T10:16:05Z</time></trkpt><trkpt lat="51.8374911603" lon="-2.0223294385"><ele>253.44</ele><time>2015-07-15T10:16:09Z</time></trkpt><trkpt lat="51.8374912441" lon="-2.0223289356"><ele>258.73</ele><time>2015-07-15T10:16:10Z</time></trkpt><trkpt lat="51.8374920823" lon="-2.0223260857"><ele>254.41</ele><time>2015-07-15T10:16:12Z</time></trkpt><trkpt lat="51.8374928366" lon="-2.0223244093"><ele>257.29</ele><time>2015-07-15T10:16:14Z</time></trkpt><trkpt lat="51.8374894001" lon="-2.0223219786"><ele>257.77</ele><time>2015-07-15T10:16:18Z</time></trkpt><trkpt lat="51.8373133801" lon="-2.0224699192"><ele>257.77</ele><time>2015-07-15T10:16:36Z</time></trkpt><trkpt lat="51.8372827023" lon="-2.0224865153"><ele>256.33</ele><time>2015-07-15T10:16:38Z</time></trkpt><trkpt lat="51.8372429721" lon="-2.0225240663"><ele>255.85</ele><time>2015-07-15T10:16:42Z</time></trkpt><trkpt lat="51.8371060956" lon="-2.0226389822"><ele>255.85</ele><time>2015-07-15T10:16:57Z</time></trkpt><trkpt lat="51.8370015733" lon="-2.0227373857"><ele>254.89</ele><time>2015-07-15T10:17:20Z</time></trkpt><trkpt lat="51.8369558081" lon="-2.0227765292"><ele>256.81</ele><time>2015-07-15T10:17:23Z</time></trkpt><trkpt lat="51.8368423171" lon="-2.0228818897"><ele>256.33</ele><time>2015-07-15T10:17:37Z</time></trkpt><trkpt lat="51.8367177621" lon="-2.0229771920"><ele>252.96</ele><time>2015-07-15T10:17:46Z</time></trkpt><trkpt lat="51.8366714939" lon="-2.0230114739"><ele>254.89</ele><time>2015-07-15T10:17:49Z</time></trkpt><trkpt lat="51.8365726713" lon="-2.0231087878"><ele>253.44</ele><time>2015-07-15T10:17:55Z</time></trkpt><trkpt lat="51.8365533929" lon="-2.0231241267"><ele>254.41</ele><time>2015-07-15T10:17:57Z</time></trkpt><trkpt lat="51.8364291731" lon="-2.0232074428"><ele>253.93</ele><time>2015-07-15T10:18:17Z</time></trkpt><trkpt lat="51.8363830727" lon="-2.0231928583"><ele>253.44</ele><time>2015-07-15T10:18:38Z</time></trkpt><trkpt lat="51.8363384809" lon="-2.0232154895"><ele>253.93</ele><time>2015-07-15T10:18:44Z</time></trkpt><trkpt lat="51.8362839986" lon="-2.0232304931"><ele>250.56</ele><time>2015-07-15T10:18:51Z</time></trkpt><trkpt lat="51.8362270016" lon="-2.0232288167"><ele>254.41</ele><time>2015-07-15T10:18:56Z</time></trkpt><trkpt lat="51.8362004310" lon="-2.0232374500"><ele>252.96</ele><time>2015-07-15T10:18:58Z</time></trkpt><trkpt lat="51.8361515645" lon="-2.0232602488"><ele>253.44</ele><time>2015-07-15T10:19:02Z</time></trkpt><trkpt lat="51.8360566813" lon="-2.0232076943"><ele>251.52</ele><time>2015-07-15T10:19:13Z</time></trkpt><trkpt lat="51.8360350560" lon="-2.0232040063"><ele>252.96</ele><time>2015-07-15T10:19:15Z</time></trkpt><trkpt lat="51.8359181285" lon="-2.0232170820"><ele>252.96</ele><time>2015-07-15T10:19:24Z</time></trkpt><trkpt lat="51.8358985148" lon="-2.0232168306"><ele>251.52</ele><time>2015-07-15T10:19:26Z</time></trkpt><trkpt lat="51.8357188907" lon="-2.0232221112"><ele>251.04</ele><time>2015-07-15T10:19:43Z</time></trkpt><trkpt lat="51.8356271926" lon="-2.0232023299"><ele>251.04</ele><time>2015-07-15T10:19:50Z</time></trkpt><trkpt lat="51.8355966825" lon="-2.0231914334"><ele>249.60</ele><time>2015-07-15T10:19:53Z</time></trkpt><trkpt lat="51.8355618976" lon="-2.0231624320"><ele>248.16</ele><time>2015-07-15T10:19:59Z</time></trkpt><trkpt lat="51.8354116939" lon="-2.0231534634"><ele>248.16</ele><time>2015-07-15T10:20:13Z</time></trkpt><trkpt lat="51.8353608157" lon="-2.0231159963"><ele>248.16</ele><time>2015-07-15T10:20:18Z</time></trkpt><trkpt lat="51.8353213370" lon="-2.0231220312"><ele>249.60</ele><time>2015-07-15T10:20:21Z</time></trkpt><trkpt lat="51.8352219276" lon="-2.0231035072"><ele>247.20</ele><time>2015-07-15T10:20:31Z</time></trkpt><trkpt lat="51.8350528646" lon="-2.0230336860"><ele>245.75</ele><time>2015-07-15T10:20:49Z</time></trkpt><trkpt lat="51.8348898366" lon="-2.0229553990"><ele>243.35</ele><time>2015-07-15T10:21:08Z</time></trkpt><trkpt lat="51.8347504456" lon="-2.0228512958"><ele>241.91</ele><time>2015-07-15T10:21:28Z</time></trkpt><trkpt lat="51.8345922790" lon="-2.0227323566"><ele>239.51</ele><time>2015-07-15T10:21:47Z</time></trkpt><trkpt lat="51.8345423229" lon="-2.0227253158"><ele>240.95</ele><time>2015-07-15T10:21:50Z</time></trkpt><trkpt lat="51.8343430012" lon="-2.0226405747"><ele>239.99</ele><time>2015-07-15T10:22:09Z</time></trkpt><trkpt lat="51.8342698272" lon="-2.0225808956"><ele>238.06</ele><time>2015-07-15T10:22:18Z</time></trkpt><trkpt lat="51.8341277540" lon="-2.0225618687"><ele>239.02</ele><time>2015-07-15T10:22:36Z</time></trkpt><trkpt lat="51.8340526521" lon="-2.0225361362"><ele>237.10</ele><time>2015-07-15T10:22:45Z</time></trkpt><trkpt lat="51.8339412566" lon="-2.0224527363"><ele>237.58</ele><time>2015-07-15T10:22:58Z</time></trkpt><trkpt lat="51.8337503169" lon="-2.0222943183"><ele>235.66</ele><time>2015-07-15T10:23:18Z</time></trkpt><trkpt lat="51.8336101715" lon="-2.0221972559"><ele>234.70</ele><time>2015-07-15T10:23:35Z</time></trkpt><trkpt lat="51.8334435392" lon="-2.0220980980"><ele>232.78</ele><time>2015-07-15T10:23:54Z</time></trkpt><trkpt lat="51.8332935032" lon="-2.0220206492"><ele>230.85</ele><time>2015-07-15T10:24:13Z</time></trkpt><trkpt lat="51.8330889009" lon="-2.0218302961"><ele>228.93</ele><time>2015-07-15T10:24:36Z</time></trkpt><trkpt lat="51.8330558762" lon="-2.0217793342"><ele>228.45</ele><time>2015-07-15T10:24:40Z</time></trkpt><trkpt lat="51.8329865579" lon="-2.0217432920"><ele>227.97</ele><time>2015-07-15T10:24:56Z</time></trkpt><trkpt lat="51.8329829536" lon="-2.0217271987"><ele>228.45</ele><time>2015-07-15T10:25:15Z</time></trkpt><trkpt lat="51.8328815326" lon="-2.0215854608"><ele>226.05</ele><time>2015-07-15T10:25:30Z</time></trkpt><trkpt lat="51.8327793572" lon="-2.0214518532"><ele>225.09</ele><time>2015-07-15T10:25:46Z</time></trkpt><trkpt lat="51.8327346817" lon="-2.0214219298"><ele>224.61</ele><time>2015-07-15T10:26:05Z</time></trkpt><trkpt lat="51.8326002359" lon="-2.0213072654"><ele>223.64</ele><time>2015-07-15T10:26:26Z</time></trkpt><trkpt lat="51.8324729148" lon="-2.0211832132"><ele>222.68</ele><time>2015-07-15T10:26:44Z</time></trkpt><trkpt lat="51.8324299157" lon="-2.0211161580"><ele>222.68</ele><time>2015-07-15T10:26:50Z</time></trkpt><trkpt lat="51.8323994055" lon="-2.0210599154"><ele>222.68</ele><time>2015-07-15T10:26:53Z</time></trkpt><trkpt lat="51.8323328532" lon="-2.0209969673"><ele>222.68</ele><time>2015-07-15T10:27:11Z</time></trkpt><trkpt lat="51.8322180212" lon="-2.0208856557"><ele>221.24</ele><time>2015-07-15T10:27:26Z</time></trkpt><trkpt lat="51.8321891874" lon="-2.0208658744"><ele>222.20</ele><time>2015-07-15T10:27:29Z</time></trkpt><trkpt lat="51.8320294283" lon="-2.0206120703"><ele>221.24</ele><time>2015-07-15T10:27:49Z</time></trkpt><trkpt lat="51.8319445197" lon="-2.0205266587"><ele>221.72</ele><time>2015-07-15T10:28:03Z</time></trkpt><trkpt lat="51.8318668194" lon="-2.0203871839"><ele>221.72</ele><time>2015-07-15T10:28:14Z</time></trkpt><trkpt lat="51.8316926435" lon="-2.0202245750"><ele>221.72</ele><time>2015-07-15T10:28:36Z</time></trkpt><trkpt lat="51.8315437809" lon="-2.0199862774"><ele>221.24</ele><time>2015-07-15T10:28:57Z</time></trkpt><trkpt lat="51.8314576149" lon="-2.0198602974"><ele>223.64</ele><time>2015-07-15T10:29:10Z</time></trkpt><trkpt lat="51.8314153701" lon="-2.0198090840"><ele>222.20</ele><time>2015-07-15T10:29:17Z</time></trkpt><trkpt lat="51.8313913140" lon="-2.0197883807"><ele>223.64</ele><time>2015-07-15T10:29:19Z</time></trkpt><trkpt lat="51.8313771486" lon="-2.0197685994"><ele>223.64</ele><time>2015-07-15T10:29:21Z</time></trkpt><trkpt lat="51.8312939163" lon="-2.0196437091"><ele>225.09</ele><time>2015-07-15T10:29:32Z</time></trkpt><trkpt lat="51.8311473168" lon="-2.0195134543"><ele>225.57</ele><time>2015-07-15T10:29:51Z</time></trkpt><trkpt lat="51.8311044853" lon="-2.0194655936"><ele>225.57</ele><time>2015-07-15T10:29:56Z</time></trkpt><trkpt lat="51.8310795072" lon="-2.0194231812"><ele>226.05</ele><time>2015-07-15T10:30:00Z</time></trkpt><trkpt lat="51.8310469016" lon="-2.0193749852"><ele>226.53</ele><time>2015-07-15T10:30:06Z</time></trkpt><trkpt lat="51.8310087640" lon="-2.0193427149"><ele>224.61</ele><time>2015-07-15T10:30:10Z</time></trkpt><trkpt lat="51.8309054989" lon="-2.0191799384"><ele>226.05</ele><time>2015-07-15T10:30:23Z</time></trkpt><trkpt lat="51.8308818620" lon="-2.0191573910"><ele>228.45</ele><time>2015-07-15T10:30:26Z</time></trkpt><trkpt lat="51.8308492564" lon="-2.0191282220"><ele>226.53</ele><time>2015-07-15T10:30:30Z</time></trkpt><trkpt lat="51.8306982145" lon="-2.0189326722"><ele>227.49</ele><time>2015-07-15T10:30:47Z</time></trkpt><trkpt lat="51.8306008168" lon="-2.0188066084"><ele>227.01</ele><time>2015-07-15T10:30:59Z</time></trkpt><trkpt lat="51.8305619247" lon="-2.0187729131"><ele>227.49</ele><time>2015-07-15T10:31:04Z</time></trkpt><trkpt lat="51.8303981423" lon="-2.0185162593"><ele>227.49</ele><time>2015-07-15T10:31:24Z</time></trkpt><trkpt lat="51.8302441668" lon="-2.0183571707"><ele>228.45</ele><time>2015-07-15T10:31:43Z</time></trkpt><trkpt lat="51.8302170094" lon="-2.0183080528"><ele>227.49</ele><time>2015-07-15T10:31:47Z</time></trkpt><trkpt lat="51.8300699070" lon="-2.0181321166"><ele>227.97</ele><time>2015-07-15T10:32:06Z</time></trkpt><trkpt lat="51.8299495429" lon="-2.0179326274"><ele>228.93</ele><time>2015-07-15T10:32:22Z</time></trkpt><trkpt lat="51.8298361357" lon="-2.0177645702"><ele>228.45</ele><time>2015-07-15T10:32:38Z</time></trkpt><trkpt lat="51.8298136722" lon="-2.0177328866"><ele>228.93</ele><time>2015-07-15T10:32:40Z</time></trkpt><trkpt lat="51.8297549151" lon="-2.0176753029"><ele>228.45</ele><time>2015-07-15T10:32:49Z</time></trkpt><trkpt lat="51.8296879437" lon="-2.0175592136"><ele>227.97</ele><time>2015-07-15T10:32:58Z</time></trkpt><trkpt lat="51.8295789789" lon="-2.0174461417"><ele>228.45</ele><time>2015-07-15T10:33:11Z</time></trkpt><trkpt lat="51.8295547552" lon="-2.0173810981"><ele>227.49</ele><time>2015-07-15T10:33:15Z</time></trkpt><trkpt lat="51.8295416795" lon="-2.0173629094"><ele>227.97</ele><time>2015-07-15T10:33:17Z</time></trkpt><trkpt lat="51.8294058926" lon="-2.0171550382"><ele>228.45</ele><time>2015-07-15T10:33:35Z</time></trkpt><trkpt lat="51.8292815890" lon="-2.0169817843"><ele>229.89</ele><time>2015-07-15T10:33:49Z</time></trkpt><trkpt lat="51.8291385937" lon="-2.0166765992"><ele>229.89</ele><time>2015-07-15T10:34:09Z</time></trkpt><trkpt lat="51.8290828541" lon="-2.0165958814"><ele>227.49</ele><time>2015-07-15T10:34:18Z</time></trkpt><trkpt lat="51.8290501647" lon="-2.0165718254"><ele>229.41</ele><time>2015-07-15T10:34:21Z</time></trkpt><trkpt lat="51.8289179821" lon="-2.0164420735"><ele>228.93</ele><time>2015-07-15T10:34:37Z</time></trkpt><trkpt lat="51.8288781680" lon="-2.0163428318"><ele>228.93</ele><time>2015-07-15T10:34:44Z</time></trkpt><trkpt lat="51.8287426326" lon="-2.0160827413"><ele>228.93</ele><time>2015-07-15T10:35:03Z</time></trkpt><trkpt lat="51.8286760803" lon="-2.0159959048"><ele>227.49</ele><time>2015-07-15T10:35:12Z</time></trkpt><trkpt lat="51.8286185805" lon="-2.0159215573"><ele>228.93</ele><time>2015-07-15T10:35:19Z</time></trkpt><trkpt lat="51.8285262957" lon="-2.0157900453"><ele>227.97</ele><time>2015-07-15T10:35:31Z</time></trkpt><trkpt lat="51.8283890840" lon="-2.0155457128"><ele>227.01</ele><time>2015-07-15T10:35:51Z</time></trkpt><trkpt lat="51.8283496052" lon="-2.0154631510"><ele>227.01</ele><time>2015-07-15T10:35:56Z</time></trkpt><trkpt lat="51.8283176702" lon="-2.0154029690"><ele>225.09</ele><time>2015-07-15T10:36:01Z</time></trkpt><trkpt lat="51.8282098789" lon="-2.0151779149"><ele>223.16</ele><time>2015-07-15T10:36:19Z</time></trkpt><trkpt lat="51.8281698972" lon="-2.0150865521"><ele>223.16</ele><time>2015-07-15T10:36:25Z</time></trkpt><trkpt lat="51.8281525467" lon="-2.0150354225"><ele>223.16</ele><time>2015-07-15T10:36:28Z</time></trkpt><trkpt lat="51.8281294964" lon="-2.0149670262"><ele>222.20</ele><time>2015-07-15T10:36:32Z</time></trkpt><trkpt lat="51.8279900216" lon="-2.0147818699"><ele>221.24</ele><time>2015-07-15T10:36:49Z</time></trkpt><trkpt lat="51.8279572483" lon="-2.0147304889"><ele>220.76</ele><time>2015-07-15T10:36:55Z</time></trkpt><trkpt lat="51.8278488703" lon="-2.0144330990"><ele>219.32</ele><time>2015-07-15T10:37:12Z</time></trkpt><trkpt lat="51.8277228065" lon="-2.0142169297"><ele>217.40</ele><time>2015-07-15T10:37:30Z</time></trkpt><trkpt lat="51.8276628759" lon="-2.0141518861"><ele>217.88</ele><time>2015-07-15T10:37:47Z</time></trkpt><trkpt lat="51.8276628759" lon="-2.0141517185"><ele>214.51</ele><time>2015-07-15T10:37:48Z</time></trkpt><trkpt lat="51.8276627921" lon="-2.0141511317"><ele>217.40</ele><time>2015-07-15T10:37:49Z</time></trkpt><trkpt lat="51.8275600299" lon="-2.0139183663"><ele>216.91</ele><time>2015-07-15T10:38:07Z</time></trkpt><trkpt lat="51.8274395820" lon="-2.0136843435"><ele>218.36</ele><time>2015-07-15T10:38:25Z</time></trkpt><trkpt lat="51.8273207266" lon="-2.0134378318"><ele>217.88</ele><time>2015-07-15T10:38:45Z</time></trkpt><trkpt lat="51.8273202237" lon="-2.0133096725"><ele>218.84</ele><time>2015-07-15T10:39:02Z</time></trkpt><trkpt lat="51.8272276875" lon="-2.0131338201"><ele>219.80</ele><time>2015-07-15T10:39:20Z</time></trkpt><trkpt lat="51.8272058107" lon="-2.0131028071"><ele>218.36</ele><time>2015-07-15T10:39:23Z</time></trkpt><trkpt lat="51.8271280266" lon="-2.0129132923"><ele>217.88</ele><time>2015-07-15T10:39:40Z</time></trkpt><trkpt lat="51.8270966783" lon="-2.0128075127"><ele>221.24</ele><time>2015-07-15T10:39:48Z</time></trkpt><trkpt lat="51.8270392623" lon="-2.0127407089"><ele>217.88</ele><time>2015-07-15T10:39:55Z</time></trkpt><trkpt lat="51.8269454688" lon="-2.0125037525"><ele>220.28</ele><time>2015-07-15T10:40:09Z</time></trkpt><trkpt lat="51.8268709537" lon="-2.0123208594"><ele>219.80</ele><time>2015-07-15T10:40:23Z</time></trkpt><trkpt lat="51.8267432135" lon="-2.0120150037"><ele>220.76</ele><time>2015-07-15T10:40:44Z</time></trkpt><trkpt lat="51.8266868033" lon="-2.0119364653"><ele>221.24</ele><time>2015-07-15T10:40:50Z</time></trkpt><trkpt lat="51.8265553750" lon="-2.0116524026"><ele>219.32</ele><time>2015-07-15T10:41:11Z</time></trkpt><trkpt lat="51.8265513517" lon="-2.0116368961"><ele>219.32</ele><time>2015-07-15T10:41:12Z</time></trkpt><trkpt lat="51.8265360128" lon="-2.0116065536"><ele>220.76</ele><time>2015-07-15T10:41:15Z</time></trkpt><trkpt lat="51.8264932651" lon="-2.0114845131"><ele>220.28</ele><time>2015-07-15T10:41:23Z</time></trkpt><trkpt lat="51.8263962027" lon="-2.0112123527"><ele>220.28</ele><time>2015-07-15T10:41:43Z</time></trkpt><trkpt lat="51.8263433967" lon="-2.0110430382"><ele>219.80</ele><time>2015-07-15T10:41:55Z</time></trkpt><trkpt lat="51.8262428138" lon="-2.0107787568"><ele>218.36</ele><time>2015-07-15T10:42:11Z</time></trkpt><trkpt lat="51.8261298258" lon="-2.0104455762"><ele>218.84</ele><time>2015-07-15T10:42:33Z</time></trkpt><trkpt lat="51.8260840606" lon="-2.0102689695"><ele>218.36</ele><time>2015-07-15T10:42:45Z</time></trkpt><trkpt lat="51.8260353617" lon="-2.0101424865"><ele>219.32</ele><time>2015-07-15T10:42:52Z</time></trkpt><trkpt lat="51.8260021694" lon="-2.0098994114"><ele>217.40</ele><time>2015-07-15T10:43:08Z</time></trkpt><trkpt lat="51.8259993196" lon="-2.0098466892"><ele>217.88</ele><time>2015-07-15T10:43:11Z</time></trkpt><trkpt lat="51.8259608466" lon="-2.0097798854"><ele>217.88</ele><time>2015-07-15T10:43:16Z</time></trkpt><trkpt lat="51.8259502016" lon="-2.0097597688"><ele>218.84</ele><time>2015-07-15T10:43:18Z</time></trkpt><trkpt lat="51.8259306718" lon="-2.0097329468"><ele>217.40</ele><time>2015-07-15T10:43:21Z</time></trkpt><trkpt lat="51.8258316815" lon="-2.0095450245"><ele>217.40</ele><time>2015-07-15T10:43:34Z</time></trkpt><trkpt lat="51.8258239701" lon="-2.0095173642"><ele>217.40</ele><time>2015-07-15T10:43:36Z</time></trkpt><trkpt lat="51.8257957231" lon="-2.0094254985"><ele>217.40</ele><time>2015-07-15T10:43:41Z</time></trkpt><trkpt lat="51.8256985769" lon="-2.0091797411"><ele>217.40</ele><time>2015-07-15T10:43:59Z</time></trkpt><trkpt lat="51.8256694917" lon="-2.0091115963"><ele>218.36</ele><time>2015-07-15T10:44:04Z</time></trkpt><trkpt lat="51.8256605230" lon="-2.0090832654"><ele>215.95</ele><time>2015-07-15T10:44:06Z</time></trkpt><trkpt lat="51.8255727645" lon="-2.0088433754"><ele>216.91</ele><time>2015-07-15T10:44:21Z</time></trkpt><trkpt lat="51.8254859280" lon="-2.0086981170"><ele>215.95</ele><time>2015-07-15T10:44:37Z</time></trkpt><trkpt lat="51.8254560046" lon="-2.0086494181"><ele>214.99</ele><time>2015-07-15T10:44:49Z</time></trkpt><trkpt lat="51.8254420068" lon="-2.0086061675"><ele>215.47</ele><time>2015-07-15T10:44:53Z</time></trkpt><trkpt lat="51.8254305236" lon="-2.0085846260"><ele>215.95</ele><time>2015-07-15T10:44:55Z</time></trkpt><trkpt lat="51.8253854290" lon="-2.0084675308"><ele>214.99</ele><time>2015-07-15T10:45:08Z</time></trkpt><trkpt lat="51.8252799846" lon="-2.0083224401"><ele>215.47</ele><time>2015-07-15T10:45:22Z</time></trkpt><trkpt lat="51.8252473790" lon="-2.0081926044"><ele>213.55</ele><time>2015-07-15T10:45:29Z</time></trkpt><trkpt lat="51.8251611292" lon="-2.0080532972"><ele>213.55</ele><time>2015-07-15T10:45:48Z</time></trkpt><trkpt lat="51.8251786474" lon="-2.0080343541"><ele>213.55</ele><time>2015-07-15T10:46:06Z</time></trkpt><trkpt lat="51.8251865264" lon="-2.0080167521"><ele>207.78</ele><time>2015-07-15T10:46:19Z</time></trkpt><trkpt lat="51.8251905497" lon="-2.0080192667"><ele>214.03</ele><time>2015-07-15T10:46:20Z</time></trkpt><trkpt lat="51.8251948245" lon="-2.0080227032"><ele>199.13</ele><time>2015-07-15T10:46:21Z</time></trkpt><trkpt lat="51.8252009433" lon="-2.0080234576"><ele>207.78</ele><time>2015-07-15T10:46:22Z</time></trkpt><trkpt lat="51.8252159469" lon="-2.0080182608"><ele>219.80</ele><time>2015-07-15T10:46:24Z</time></trkpt><trkpt lat="51.8252208084" lon="-2.0080118906"><ele>214.03</ele><time>2015-07-15T10:46:25Z</time></trkpt><trkpt lat="51.8252274301" lon="-2.0079979766"><ele>213.07</ele><time>2015-07-15T10:46:27Z</time></trkpt><trkpt lat="51.8251905497" lon="-2.0079999045"><ele>213.55</ele><time>2015-07-15T10:46:49Z</time></trkpt><trkpt lat="51.8251629733" lon="-2.0077756885"><ele>211.63</ele><time>2015-07-15T10:47:08Z</time></trkpt><trkpt lat="51.8251146935" lon="-2.0075917896"><ele>212.59</ele><time>2015-07-15T10:47:19Z</time></trkpt><trkpt lat="51.8250055611" lon="-2.0073228981"><ele>206.34</ele><time>2015-07-15T10:47:32Z</time></trkpt><trkpt lat="51.8250047229" lon="-2.0073145162"><ele>213.07</ele><time>2015-07-15T10:47:33Z</time></trkpt><trkpt lat="51.8250031304" lon="-2.0073083974"><ele>210.67</ele><time>2015-07-15T10:47:36Z</time></trkpt><trkpt lat="51.8249786552" lon="-2.0071409270"><ele>209.22</ele><time>2015-07-15T10:47:55Z</time></trkpt><trkpt lat="51.8249784037" lon="-2.0071356464"><ele>208.26</ele><time>2015-07-15T10:48:03Z</time></trkpt><trkpt lat="51.8249691837" lon="-2.0071053877"><ele>209.22</ele><time>2015-07-15T10:48:05Z</time></trkpt><trkpt lat="51.8248490710" lon="-2.0066988654"><ele>205.86</ele><time>2015-07-15T10:48:18Z</time></trkpt><trkpt lat="51.8247742206" lon="-2.0064909942"><ele>206.34</ele><time>2015-07-15T10:48:28Z</time></trkpt><trkpt lat="51.8247230910" lon="-2.0063191652"><ele>205.86</ele><time>2015-07-15T10:48:35Z</time></trkpt><trkpt lat="51.8246790860" lon="-2.0061588194"><ele>204.90</ele><time>2015-07-15T10:48:44Z</time></trkpt><trkpt lat="51.8245270383" lon="-2.0058532991"><ele>203.46</ele><time>2015-07-15T10:49:04Z</time></trkpt><trkpt lat="51.8244741485" lon="-2.0057199430"><ele>202.49</ele><time>2015-07-15T10:49:10Z</time></trkpt><trkpt lat="51.8244635873" lon="-2.0056626946"><ele>203.46</ele><time>2015-07-15T10:49:12Z</time></trkpt><trkpt lat="51.8244017288" lon="-2.0054941345"><ele>202.01</ele><time>2015-07-15T10:49:19Z</time></trkpt><trkpt lat="51.8243821990" lon="-2.0054177754"><ele>203.46</ele><time>2015-07-15T10:49:23Z</time></trkpt><trkpt lat="51.8243650999" lon="-2.0053603593"><ele>201.05</ele><time>2015-07-15T10:49:26Z</time></trkpt><trkpt lat="51.8242937699" lon="-2.0050560124"><ele>199.61</ele><time>2015-07-15T10:49:49Z</time></trkpt><trkpt lat="51.8242666963" lon="-2.0048795734"><ele>199.61</ele><time>2015-07-15T10:50:07Z</time></trkpt><trkpt lat="51.8242515251" lon="-2.0048270188"><ele>198.65</ele><time>2015-07-15T10:50:16Z</time></trkpt><trkpt lat="51.8241447397" lon="-2.0045995340"><ele>198.65</ele><time>2015-07-15T10:50:34Z</time></trkpt><trkpt lat="51.8241280597" lon="-2.0045642462"><ele>198.65</ele><time>2015-07-15T10:50:54Z</time></trkpt><trkpt lat="51.8241225276" lon="-2.0045626536"><ele>199.13</ele><time>2015-07-15T10:51:17Z</time></trkpt><trkpt lat="51.8240943644" lon="-2.0045778248"><ele>189.52</ele><time>2015-07-15T10:51:33Z</time></trkpt><trkpt lat="51.8240944482" lon="-2.0045774896"><ele>205.38</ele><time>2015-07-15T10:51:34Z</time></trkpt><trkpt lat="51.8240945321" lon="-2.0045765676"><ele>199.61</ele><time>2015-07-15T10:51:35Z</time></trkpt><trkpt lat="51.8240859825" lon="-2.0045980252"><ele>199.13</ele><time>2015-07-15T10:51:54Z</time></trkpt><trkpt lat="51.8240963761" lon="-2.0045002922"><ele>198.65</ele><time>2015-07-15T10:52:12Z</time></trkpt><trkpt lat="51.8240852281" lon="-2.0044452231"><ele>198.17</ele><time>2015-07-15T10:52:28Z</time></trkpt><trkpt lat="51.8240268901" lon="-2.0043059159"><ele>196.73</ele><time>2015-07-15T10:52:33Z</time></trkpt><trkpt lat="51.8239464238" lon="-2.0041606575"><ele>197.21</ele><time>2015-07-15T10:52:39Z</time></trkpt><trkpt lat="51.8238534685" lon="-2.0039396267"><ele>197.21</ele><time>2015-07-15T10:52:48Z</time></trkpt><trkpt lat="51.8237530533" lon="-2.0037825499"><ele>194.80</ele><time>2015-07-15T10:53:06Z</time></trkpt><trkpt lat="51.8237227108" lon="-2.0037220325"><ele>194.80</ele><time>2015-07-15T10:53:24Z</time></trkpt><trkpt lat="51.8236864172" lon="-2.0036262274"><ele>194.32</ele><time>2015-07-15T10:53:32Z</time></trkpt><trkpt lat="51.8236717489" lon="-2.0036019199"><ele>195.28</ele><time>2015-07-15T10:53:33Z</time></trkpt><trkpt lat="51.8235707469" lon="-2.0034687314"><ele>193.84</ele><time>2015-07-15T10:53:40Z</time></trkpt><trkpt lat="51.8235364649" lon="-2.0034455974"><ele>195.28</ele><time>2015-07-15T10:53:43Z</time></trkpt><trkpt lat="51.8235153425" lon="-2.0034347847"><ele>193.36</ele><time>2015-07-15T10:53:45Z</time></trkpt><trkpt lat="51.8234657217" lon="-2.0034097228"><ele>194.80</ele><time>2015-07-15T10:53:51Z</time></trkpt><trkpt lat="51.8234420847" lon="-2.0034016762"><ele>192.88</ele><time>2015-07-15T10:53:54Z</time></trkpt><trkpt lat="51.8234140892" lon="-2.0034026820"><ele>194.80</ele><time>2015-07-15T10:53:57Z</time></trkpt><trkpt lat="51.8234005943" lon="-2.0033956412"><ele>194.32</ele><time>2015-07-15T10:53:58Z</time></trkpt><trkpt lat="51.8232124206" lon="-2.0035206154"><ele>193.84</ele><time>2015-07-15T10:54:19Z</time></trkpt><trkpt lat="51.8230102491" lon="-2.0035661291"><ele>193.84</ele><time>2015-07-15T10:54:39Z</time></trkpt><trkpt lat="51.8227934092" lon="-2.0036250539"><ele>191.92</ele><time>2015-07-15T10:54:57Z</time></trkpt><trkpt lat="51.8227101769" lon="-2.0036867447"><ele>191.44</ele><time>2015-07-15T10:55:06Z</time></trkpt><trkpt lat="51.8225844484" lon="-2.0037295762"><ele>190.00</ele><time>2015-07-15T10:55:19Z</time></trkpt><trkpt lat="51.8225448858" lon="-2.0036734175"><ele>190.96</ele><time>2015-07-15T10:55:30Z</time></trkpt><trkpt lat="51.8225411139" lon="-2.0036765188"><ele>190.48</ele><time>2015-07-15T10:55:41Z</time></trkpt><trkpt lat="51.8225195725" lon="-2.0036652870"><ele>190.00</ele><time>2015-07-15T10:55:51Z</time></trkpt><trkpt lat="51.8224748131" lon="-2.0036675502"><ele>190.48</ele><time>2015-07-15T10:56:00Z</time></trkpt><trkpt lat="51.8223851267" lon="-2.0036797877"><ele>189.04</ele><time>2015-07-15T10:56:14Z</time></trkpt><trkpt lat="51.8223829474" lon="-2.0036840625"><ele>188.08</ele><time>2015-07-15T10:56:28Z</time></trkpt><trkpt lat="51.8223191611" lon="-2.0037255529"><ele>188.08</ele><time>2015-07-15T10:56:34Z</time></trkpt><trkpt lat="51.8221314903" lon="-2.0036688913"><ele>188.08</ele><time>2015-07-15T10:56:48Z</time></trkpt><trkpt lat="51.8219645228" lon="-2.0036269818"><ele>184.23</ele><time>2015-07-15T10:56:59Z</time></trkpt><trkpt lat="51.8219459988" lon="-2.0036266465"><ele>183.75</ele><time>2015-07-15T10:57:00Z</time></trkpt><trkpt lat="51.8217721581" lon="-2.0036056079"><ele>183.27</ele><time>2015-07-15T10:57:11Z</time></trkpt><trkpt lat="51.8217020016" lon="-2.0035705715"><ele>180.87</ele><time>2015-07-15T10:57:17Z</time></trkpt><trkpt lat="51.8215924501" lon="-2.0035404805"><ele>179.42</ele><time>2015-07-15T10:57:26Z</time></trkpt><trkpt lat="51.8215429969" lon="-2.0035243873"><ele>178.46</ele><time>2015-07-15T10:57:30Z</time></trkpt><trkpt lat="51.8214114849" lon="-2.0034665521"><ele>177.02</ele><time>2015-07-15T10:57:50Z</time></trkpt><trkpt lat="51.8213468604" lon="-2.0034966432"><ele>175.58</ele><time>2015-07-15T10:58:06Z</time></trkpt><trkpt lat="51.8212838285" lon="-2.0036265627"><ele>172.69</ele><time>2015-07-15T10:58:26Z</time></trkpt><trkpt lat="51.8211558368" lon="-2.0036082901"><ele>171.25</ele><time>2015-07-15T10:58:38Z</time></trkpt><trkpt lat="51.8210379872" lon="-2.0035788696"><ele>169.33</ele><time>2015-07-15T10:58:50Z</time></trkpt><trkpt lat="51.8207253423" lon="-2.0035384689"><ele>167.89</ele><time>2015-07-15T10:59:11Z</time></trkpt><trkpt lat="51.8205193989" lon="-2.0035092160"><ele>165.00</ele><time>2015-07-15T10:59:30Z</time></trkpt><trkpt lat="51.8203614838" lon="-2.0034314319"><ele>164.04</ele><time>2015-07-15T10:59:42Z</time></trkpt><trkpt lat="51.8201774172" lon="-2.0034070406"><ele>163.56</ele><time>2015-07-15T11:00:04Z</time></trkpt><trkpt lat="51.8199786823" lon="-2.0033048652"><ele>161.64</ele><time>2015-07-15T11:00:26Z</time></trkpt><trkpt lat="51.8198199291" lon="-2.0033124089"><ele>160.20</ele><time>2015-07-15T11:00:46Z</time></trkpt><trkpt lat="51.8197238725" lon="-2.0033072121"><ele>159.24</ele><time>2015-07-15T11:01:03Z</time></trkpt><trkpt lat="51.8196796998" lon="-2.0032831561"><ele>157.31</ele><time>2015-07-15T11:01:19Z</time></trkpt><trkpt lat="51.8195095472" lon="-2.0032438450"><ele>154.43</ele><time>2015-07-15T11:01:33Z</time></trkpt><trkpt lat="51.8193529733" lon="-2.0031119138"><ele>152.03</ele><time>2015-07-15T11:01:50Z</time></trkpt><trkpt lat="51.8192844931" lon="-2.0028790645"><ele>152.03</ele><time>2015-07-15T11:02:09Z</time></trkpt><trkpt lat="51.8193103094" lon="-2.0028224867"><ele>152.51</ele><time>2015-07-15T11:02:30Z</time></trkpt><trkpt lat="51.8193336949" lon="-2.0027918089"><ele>151.06</ele><time>2015-07-15T11:02:33Z</time></trkpt><trkpt lat="51.8193746824" lon="-2.0026609674"><ele>152.03</ele><time>2015-07-15T11:02:56Z</time></trkpt><trkpt lat="51.8193323538" lon="-2.0025633182"><ele>152.99</ele><time>2015-07-15T11:03:02Z</time></trkpt><trkpt lat="51.8192661367" lon="-2.0023944229"><ele>152.51</ele><time>2015-07-15T11:03:11Z</time></trkpt><trkpt lat="51.8192518037" lon="-2.0022977795"><ele>152.99</ele><time>2015-07-15T11:03:18Z</time></trkpt><trkpt lat="51.8192290887" lon="-2.0022522658"><ele>153.95</ele><time>2015-07-15T11:03:21Z</time></trkpt><trkpt lat="51.8191742711" lon="-2.0020903274"><ele>155.39</ele><time>2015-07-15T11:03:33Z</time></trkpt><trkpt lat="51.8191334512" lon="-2.0020044129"><ele>156.83</ele><time>2015-07-15T11:03:41Z</time></trkpt><trkpt lat="51.8191330321" lon="-2.0019912533"><ele>150.10</ele><time>2015-07-15T11:03:42Z</time></trkpt><trkpt lat="51.8191315234" lon="-2.0019790158"><ele>156.83</ele><time>2015-07-15T11:03:43Z</time></trkpt><trkpt lat="51.8191232253" lon="-2.0019392855"><ele>160.20</ele><time>2015-07-15T11:03:45Z</time></trkpt><trkpt lat="51.8191150110" lon="-2.0019231923"><ele>152.99</ele><time>2015-07-15T11:03:46Z</time></trkpt><trkpt lat="51.8191118259" lon="-2.0019159839"><ele>157.31</ele><time>2015-07-15T11:03:47Z</time></trkpt><trkpt lat="51.8190088961" lon="-2.0018374454"><ele>160.68</ele><time>2015-07-15T11:04:00Z</time></trkpt><trkpt lat="51.8190086447" lon="-2.0018375292"><ele>160.20</ele><time>2015-07-15T11:04:01Z</time></trkpt><trkpt lat="51.8189888634" lon="-2.0018191729"><ele>161.64</ele><time>2015-07-15T11:04:09Z</time></trkpt><trkpt lat="51.8189301062" lon="-2.0017909259"><ele>161.64</ele><time>2015-07-15T11:04:20Z</time></trkpt><trkpt lat="51.8188669905" lon="-2.0017451607"><ele>164.04</ele><time>2015-07-15T11:04:23Z</time></trkpt><trkpt lat="51.8187723588" lon="-2.0017351024"><ele>163.08</ele><time>2015-07-15T11:04:40Z</time></trkpt><trkpt lat="51.8187721912" lon="-2.0017350186"><ele>166.93</ele><time>2015-07-15T11:04:41Z</time></trkpt><trkpt lat="51.8187720235" lon="-2.0017350186"><ele>161.64</ele><time>2015-07-15T11:04:42Z</time></trkpt><trkpt lat="51.8187317904" lon="-2.0017230324"><ele>165.00</ele><time>2015-07-15T11:04:47Z</time></trkpt><trkpt lat="51.8187131826" lon="-2.0017106272"><ele>161.64</ele><time>2015-07-15T11:04:49Z</time></trkpt><trkpt lat="51.8186355662" lon="-2.0016649459"><ele>163.08</ele><time>2015-07-15T11:04:55Z</time></trkpt><trkpt lat="51.8186198920" lon="-2.0016473439"><ele>165.00</ele><time>2015-07-15T11:04:57Z</time></trkpt><trkpt lat="51.8185650744" lon="-2.0016335137"><ele>163.08</ele><time>2015-07-15T11:05:02Z</time></trkpt><trkpt lat="51.8184935767" lon="-2.0015911013"><ele>163.56</ele><time>2015-07-15T11:05:08Z</time></trkpt><trkpt lat="51.8183320574" lon="-2.0015703142"><ele>162.12</ele><time>2015-07-15T11:05:21Z</time></trkpt><trkpt lat="51.8182552792" lon="-2.0016113855"><ele>163.56</ele><time>2015-07-15T11:05:29Z</time></trkpt><trkpt lat="51.8182319775" lon="-2.0016408898"><ele>166.93</ele><time>2015-07-15T11:05:32Z</time></trkpt><trkpt lat="51.8182297144" lon="-2.0018426422"><ele>165.00</ele><time>2015-07-15T11:05:43Z</time></trkpt><trkpt lat="51.8181861285" lon="-2.0018933527"><ele>168.37</ele><time>2015-07-15T11:05:51Z</time></trkpt><trkpt lat="51.8181260303" lon="-2.0018338412"><ele>167.89</ele><time>2015-07-15T11:05:59Z</time></trkpt><trkpt lat="51.8180693686" lon="-2.0017733239"><ele>171.25</ele><time>2015-07-15T11:06:16Z</time></trkpt><trkpt lat="51.8180663511" lon="-2.0017662831"><ele>167.89</ele><time>2015-07-15T11:06:17Z</time></trkpt><trkpt lat="51.8180616572" lon="-2.0017606672"><ele>167.89</ele><time>2015-07-15T11:06:22Z</time></trkpt></trkseg></trk></gpx>